<?xml version="1.0" encoding="UTF-8" standalone="no" ?>
<gpx xmlns="http://www.topografix.com/GPX/1/1" xmlns:xsi="http://www.w3.org/2001/XMLSchema-instance" xsi:schemaLocation="http://www.topografix.com/GPX/1/1 http://www.topografix.com/GPX/1/1/gpx.xsd" version="1.1" creator="VisuGPX - https://www.visugpx.com">
  <metadata>
    <name>8 novembre 2014</name>
    <desc><![CDATA[club vtt des rochers]]></desc>
  </metadata>
  <trk>
    <name><![CDATA[08-NOV-14 16:48:56]]></name>
    <trkseg>
      <trkpt lat="44.47196" lon="0.93433">
        <ele>68.39</ele>
        <time>2014-11-08T13:15:04Z</time>
      </trkpt>
      <trkpt lat="44.47193" lon="0.9342">
        <ele>71.27</ele>
        <time>2014-11-08T13:15:18Z</time>
      </trkpt>
      <trkpt lat="44.47196" lon="0.93427">
        <ele>78.97</ele>
        <time>2014-11-08T13:15:33Z</time>
      </trkpt>
      <trkpt lat="44.47197" lon="0.93429">
        <ele>83.29</ele>
        <time>2014-11-08T13:15:54Z</time>
      </trkpt>
      <trkpt lat="44.47197" lon="0.93427">
        <ele>78.97</ele>
        <time>2014-11-08T13:16:23Z</time>
      </trkpt>
      <trkpt lat="44.472" lon="0.9343">
        <ele>77.04</ele>
        <time>2014-11-08T13:16:42Z</time>
      </trkpt>
      <trkpt lat="44.47199" lon="0.93432">
        <ele>75.12</ele>
        <time>2014-11-08T13:17:07Z</time>
      </trkpt>
      <trkpt lat="44.47198" lon="0.93431">
        <ele>76.08</ele>
        <time>2014-11-08T13:17:26Z</time>
      </trkpt>
      <trkpt lat="44.47199" lon="0.9343">
        <ele>76.56</ele>
        <time>2014-11-08T13:17:58Z</time>
      </trkpt>
      <trkpt lat="44.47198" lon="0.93432">
        <ele>76.08</ele>
        <time>2014-11-08T13:18:25Z</time>
      </trkpt>
      <trkpt lat="44.47197" lon="0.93431">
        <ele>75.6</ele>
        <time>2014-11-08T13:18:49Z</time>
      </trkpt>
      <trkpt lat="44.47197" lon="0.93432">
        <ele>75.12</ele>
        <time>2014-11-08T13:18:57Z</time>
      </trkpt>
      <trkpt lat="44.47197" lon="0.93436">
        <ele>75.12</ele>
        <time>2014-11-08T13:18:59Z</time>
      </trkpt>
      <trkpt lat="44.4717" lon="0.93469">
        <ele>74.64</ele>
        <time>2014-11-08T13:19:13Z</time>
      </trkpt>
      <trkpt lat="44.47118" lon="0.9349">
        <ele>73.68</ele>
        <time>2014-11-08T13:19:30Z</time>
      </trkpt>
      <trkpt lat="44.47112" lon="0.93493">
        <ele>73.2</ele>
        <time>2014-11-08T13:19:40Z</time>
      </trkpt>
      <trkpt lat="44.4711" lon="0.93492">
        <ele>73.2</ele>
        <time>2014-11-08T13:19:41Z</time>
      </trkpt>
      <trkpt lat="44.47109" lon="0.93491">
        <ele>73.68</ele>
        <time>2014-11-08T13:19:42Z</time>
      </trkpt>
      <trkpt lat="44.47107" lon="0.93488">
        <ele>73.68</ele>
        <time>2014-11-08T13:19:43Z</time>
      </trkpt>
      <trkpt lat="44.47098" lon="0.93477">
        <ele>74.16</ele>
        <time>2014-11-08T13:19:47Z</time>
      </trkpt>
      <trkpt lat="44.47095" lon="0.93477">
        <ele>73.68</ele>
        <time>2014-11-08T13:19:48Z</time>
      </trkpt>
      <trkpt lat="44.47091" lon="0.93478">
        <ele>74.16</ele>
        <time>2014-11-08T13:19:49Z</time>
      </trkpt>
      <trkpt lat="44.47088" lon="0.9348">
        <ele>74.16</ele>
        <time>2014-11-08T13:19:50Z</time>
      </trkpt>
      <trkpt lat="44.47084" lon="0.93482">
        <ele>74.16</ele>
        <time>2014-11-08T13:19:51Z</time>
      </trkpt>
      <trkpt lat="44.47021" lon="0.93543">
        <ele>72.72</ele>
        <time>2014-11-08T13:20:09Z</time>
      </trkpt>
      <trkpt lat="44.47017" lon="0.93546">
        <ele>72.72</ele>
        <time>2014-11-08T13:20:10Z</time>
      </trkpt>
      <trkpt lat="44.47013" lon="0.9355">
        <ele>72.72</ele>
        <time>2014-11-08T13:20:11Z</time>
      </trkpt>
      <trkpt lat="44.46963" lon="0.93592">
        <ele>72.72</ele>
        <time>2014-11-08T13:20:23Z</time>
      </trkpt>
      <trkpt lat="44.46958" lon="0.93593">
        <ele>72.72</ele>
        <time>2014-11-08T13:20:24Z</time>
      </trkpt>
      <trkpt lat="44.46953" lon="0.93593">
        <ele>72.72</ele>
        <time>2014-11-08T13:20:25Z</time>
      </trkpt>
      <trkpt lat="44.46944" lon="0.93592">
        <ele>72.72</ele>
        <time>2014-11-08T13:20:27Z</time>
      </trkpt>
      <trkpt lat="44.46926" lon="0.93586">
        <ele>73.2</ele>
        <time>2014-11-08T13:20:31Z</time>
      </trkpt>
      <trkpt lat="44.46921" lon="0.93584">
        <ele>73.2</ele>
        <time>2014-11-08T13:20:32Z</time>
      </trkpt>
      <trkpt lat="44.46917" lon="0.93583">
        <ele>73.2</ele>
        <time>2014-11-08T13:20:33Z</time>
      </trkpt>
      <trkpt lat="44.46913" lon="0.93583">
        <ele>73.2</ele>
        <time>2014-11-08T13:20:34Z</time>
      </trkpt>
      <trkpt lat="44.46909" lon="0.93584">
        <ele>73.2</ele>
        <time>2014-11-08T13:20:35Z</time>
      </trkpt>
      <trkpt lat="44.46906" lon="0.93586">
        <ele>73.2</ele>
        <time>2014-11-08T13:20:36Z</time>
      </trkpt>
      <trkpt lat="44.46903" lon="0.93588">
        <ele>73.68</ele>
        <time>2014-11-08T13:20:37Z</time>
      </trkpt>
      <trkpt lat="44.46901" lon="0.9359">
        <ele>73.68</ele>
        <time>2014-11-08T13:20:38Z</time>
      </trkpt>
      <trkpt lat="44.46897" lon="0.93602">
        <ele>74.64</ele>
        <time>2014-11-08T13:20:42Z</time>
      </trkpt>
      <trkpt lat="44.46886" lon="0.93631">
        <ele>80.41</ele>
        <time>2014-11-08T13:20:55Z</time>
      </trkpt>
      <trkpt lat="44.46862" lon="0.93645">
        <ele>80.89</ele>
        <time>2014-11-08T13:21:06Z</time>
      </trkpt>
      <trkpt lat="44.46843" lon="0.93698">
        <ele>81.85</ele>
        <time>2014-11-08T13:21:21Z</time>
      </trkpt>
      <trkpt lat="44.46815" lon="0.93782">
        <ele>83.29</ele>
        <time>2014-11-08T13:21:40Z</time>
      </trkpt>
      <trkpt lat="44.46786" lon="0.93868">
        <ele>83.29</ele>
        <time>2014-11-08T13:21:57Z</time>
      </trkpt>
      <trkpt lat="44.46756" lon="0.93955">
        <ele>83.77</ele>
        <time>2014-11-08T13:22:13Z</time>
      </trkpt>
      <trkpt lat="44.46727" lon="0.94029">
        <ele>83.77</ele>
        <time>2014-11-08T13:22:29Z</time>
      </trkpt>
      <trkpt lat="44.46721" lon="0.94029">
        <ele>83.77</ele>
        <time>2014-11-08T13:22:31Z</time>
      </trkpt>
      <trkpt lat="44.46714" lon="0.94025">
        <ele>83.77</ele>
        <time>2014-11-08T13:22:33Z</time>
      </trkpt>
      <trkpt lat="44.4671" lon="0.94024">
        <ele>83.77</ele>
        <time>2014-11-08T13:22:34Z</time>
      </trkpt>
      <trkpt lat="44.46706" lon="0.94022">
        <ele>83.77</ele>
        <time>2014-11-08T13:22:35Z</time>
      </trkpt>
      <trkpt lat="44.46629" lon="0.94">
        <ele>83.77</ele>
        <time>2014-11-08T13:22:52Z</time>
      </trkpt>
      <trkpt lat="44.46585" lon="0.94019">
        <ele>83.29</ele>
        <time>2014-11-08T13:23:02Z</time>
      </trkpt>
      <trkpt lat="44.46513" lon="0.94055">
        <ele>82.33</ele>
        <time>2014-11-08T13:23:18Z</time>
      </trkpt>
      <trkpt lat="44.4649" lon="0.94078">
        <ele>82.33</ele>
        <time>2014-11-08T13:23:24Z</time>
      </trkpt>
      <trkpt lat="44.46486" lon="0.94082">
        <ele>82.33</ele>
        <time>2014-11-08T13:23:25Z</time>
      </trkpt>
      <trkpt lat="44.46482" lon="0.94085">
        <ele>82.33</ele>
        <time>2014-11-08T13:23:26Z</time>
      </trkpt>
      <trkpt lat="44.46419" lon="0.94152">
        <ele>82.81</ele>
        <time>2014-11-08T13:23:42Z</time>
      </trkpt>
      <trkpt lat="44.46354" lon="0.94224">
        <ele>83.29</ele>
        <time>2014-11-08T13:23:58Z</time>
      </trkpt>
      <trkpt lat="44.46282" lon="0.94302">
        <ele>83.77</ele>
        <time>2014-11-08T13:24:15Z</time>
      </trkpt>
      <trkpt lat="44.46231" lon="0.94357">
        <ele>84.73</ele>
        <time>2014-11-08T13:24:27Z</time>
      </trkpt>
      <trkpt lat="44.46229" lon="0.94364">
        <ele>84.73</ele>
        <time>2014-11-08T13:24:28Z</time>
      </trkpt>
      <trkpt lat="44.46226" lon="0.94376">
        <ele>85.21</ele>
        <time>2014-11-08T13:24:30Z</time>
      </trkpt>
      <trkpt lat="44.46202" lon="0.94438">
        <ele>86.66</ele>
        <time>2014-11-08T13:24:40Z</time>
      </trkpt>
      <trkpt lat="44.46204" lon="0.94463">
        <ele>87.14</ele>
        <time>2014-11-08T13:24:44Z</time>
      </trkpt>
      <trkpt lat="44.46269" lon="0.94549">
        <ele>87.62</ele>
        <time>2014-11-08T13:25:01Z</time>
      </trkpt>
      <trkpt lat="44.46304" lon="0.94596">
        <ele>88.1</ele>
        <time>2014-11-08T13:25:11Z</time>
      </trkpt>
      <trkpt lat="44.46353" lon="0.94661">
        <ele>88.1</ele>
        <time>2014-11-08T13:25:25Z</time>
      </trkpt>
      <trkpt lat="44.46356" lon="0.94665">
        <ele>88.58</ele>
        <time>2014-11-08T13:25:26Z</time>
      </trkpt>
      <trkpt lat="44.46366" lon="0.94679">
        <ele>89.54</ele>
        <time>2014-11-08T13:25:29Z</time>
      </trkpt>
      <trkpt lat="44.46383" lon="0.94706">
        <ele>90.98</ele>
        <time>2014-11-08T13:25:39Z</time>
      </trkpt>
      <trkpt lat="44.46384" lon="0.94706">
        <ele>90.98</ele>
        <time>2014-11-08T13:25:57Z</time>
      </trkpt>
      <trkpt lat="44.46384" lon="0.94707">
        <ele>90.98</ele>
        <time>2014-11-08T13:26:16Z</time>
      </trkpt>
      <trkpt lat="44.46383" lon="0.9471">
        <ele>90.98</ele>
        <time>2014-11-08T13:26:18Z</time>
      </trkpt>
      <trkpt lat="44.46381" lon="0.94713">
        <ele>90.98</ele>
        <time>2014-11-08T13:26:19Z</time>
      </trkpt>
      <trkpt lat="44.46376" lon="0.9472">
        <ele>91.46</ele>
        <time>2014-11-08T13:26:21Z</time>
      </trkpt>
      <trkpt lat="44.4634" lon="0.9479">
        <ele>93.87</ele>
        <time>2014-11-08T13:26:32Z</time>
      </trkpt>
      <trkpt lat="44.46292" lon="0.94914">
        <ele>91.46</ele>
        <time>2014-11-08T13:26:46Z</time>
      </trkpt>
      <trkpt lat="44.46256" lon="0.95018">
        <ele>89.54</ele>
        <time>2014-11-08T13:26:57Z</time>
      </trkpt>
      <trkpt lat="44.46252" lon="0.95026">
        <ele>89.06</ele>
        <time>2014-11-08T13:26:58Z</time>
      </trkpt>
      <trkpt lat="44.46247" lon="0.95033">
        <ele>89.06</ele>
        <time>2014-11-08T13:26:59Z</time>
      </trkpt>
      <trkpt lat="44.46243" lon="0.9504">
        <ele>89.06</ele>
        <time>2014-11-08T13:27:00Z</time>
      </trkpt>
      <trkpt lat="44.46238" lon="0.95046">
        <ele>89.06</ele>
        <time>2014-11-08T13:27:01Z</time>
      </trkpt>
      <trkpt lat="44.46233" lon="0.95051">
        <ele>89.06</ele>
        <time>2014-11-08T13:27:02Z</time>
      </trkpt>
      <trkpt lat="44.46228" lon="0.95056">
        <ele>88.58</ele>
        <time>2014-11-08T13:27:03Z</time>
      </trkpt>
      <trkpt lat="44.46222" lon="0.9506">
        <ele>88.1</ele>
        <time>2014-11-08T13:27:04Z</time>
      </trkpt>
      <trkpt lat="44.46201" lon="0.95076">
        <ele>87.62</ele>
        <time>2014-11-08T13:27:08Z</time>
      </trkpt>
      <trkpt lat="44.46176" lon="0.95091">
        <ele>87.62</ele>
        <time>2014-11-08T13:27:13Z</time>
      </trkpt>
      <trkpt lat="44.46115" lon="0.95123">
        <ele>87.62</ele>
        <time>2014-11-08T13:27:27Z</time>
      </trkpt>
      <trkpt lat="44.46112" lon="0.95125">
        <ele>87.62</ele>
        <time>2014-11-08T13:27:28Z</time>
      </trkpt>
      <trkpt lat="44.46091" lon="0.95143">
        <ele>87.62</ele>
        <time>2014-11-08T13:27:34Z</time>
      </trkpt>
      <trkpt lat="44.46088" lon="0.95148">
        <ele>88.1</ele>
        <time>2014-11-08T13:27:35Z</time>
      </trkpt>
      <trkpt lat="44.46081" lon="0.95156">
        <ele>88.1</ele>
        <time>2014-11-08T13:27:37Z</time>
      </trkpt>
      <trkpt lat="44.46015" lon="0.95232">
        <ele>88.1</ele>
        <time>2014-11-08T13:27:54Z</time>
      </trkpt>
      <trkpt lat="44.46007" lon="0.95242">
        <ele>87.62</ele>
        <time>2014-11-08T13:27:56Z</time>
      </trkpt>
      <trkpt lat="44.45948" lon="0.95296">
        <ele>88.58</ele>
        <time>2014-11-08T13:28:09Z</time>
      </trkpt>
      <trkpt lat="44.45938" lon="0.95301">
        <ele>88.58</ele>
        <time>2014-11-08T13:28:11Z</time>
      </trkpt>
      <trkpt lat="44.45897" lon="0.95293">
        <ele>89.54</ele>
        <time>2014-11-08T13:28:19Z</time>
      </trkpt>
      <trkpt lat="44.45883" lon="0.95298">
        <ele>90.02</ele>
        <time>2014-11-08T13:28:22Z</time>
      </trkpt>
      <trkpt lat="44.45861" lon="0.95313">
        <ele>90.5</ele>
        <time>2014-11-08T13:28:27Z</time>
      </trkpt>
      <trkpt lat="44.45839" lon="0.95328">
        <ele>91.46</ele>
        <time>2014-11-08T13:28:32Z</time>
      </trkpt>
      <trkpt lat="44.4583" lon="0.95332">
        <ele>91.94</ele>
        <time>2014-11-08T13:28:34Z</time>
      </trkpt>
      <trkpt lat="44.45817" lon="0.9534">
        <ele>92.42</ele>
        <time>2014-11-08T13:28:37Z</time>
      </trkpt>
      <trkpt lat="44.45732" lon="0.95402">
        <ele>94.35</ele>
        <time>2014-11-08T13:28:56Z</time>
      </trkpt>
      <trkpt lat="44.4567" lon="0.95447">
        <ele>94.83</ele>
        <time>2014-11-08T13:29:09Z</time>
      </trkpt>
      <trkpt lat="44.45666" lon="0.95452">
        <ele>94.83</ele>
        <time>2014-11-08T13:29:10Z</time>
      </trkpt>
      <trkpt lat="44.45662" lon="0.95455">
        <ele>94.83</ele>
        <time>2014-11-08T13:29:11Z</time>
      </trkpt>
      <trkpt lat="44.45657" lon="0.95459">
        <ele>95.31</ele>
        <time>2014-11-08T13:29:12Z</time>
      </trkpt>
      <trkpt lat="44.45652" lon="0.95463">
        <ele>95.31</ele>
        <time>2014-11-08T13:29:13Z</time>
      </trkpt>
      <trkpt lat="44.45572" lon="0.9554">
        <ele>97.23</ele>
        <time>2014-11-08T13:29:32Z</time>
      </trkpt>
      <trkpt lat="44.45517" lon="0.95606">
        <ele>97.71</ele>
        <time>2014-11-08T13:29:48Z</time>
      </trkpt>
      <trkpt lat="44.455" lon="0.95628">
        <ele>98.19</ele>
        <time>2014-11-08T13:29:54Z</time>
      </trkpt>
      <trkpt lat="44.45453" lon="0.95705">
        <ele>99.15</ele>
        <time>2014-11-08T13:30:12Z</time>
      </trkpt>
      <trkpt lat="44.4545" lon="0.9571">
        <ele>99.15</ele>
        <time>2014-11-08T13:30:13Z</time>
      </trkpt>
      <trkpt lat="44.45427" lon="0.95752">
        <ele>99.15</ele>
        <time>2014-11-08T13:30:22Z</time>
      </trkpt>
      <trkpt lat="44.4539" lon="0.95815">
        <ele>99.63</ele>
        <time>2014-11-08T13:30:37Z</time>
      </trkpt>
      <trkpt lat="44.45379" lon="0.95841">
        <ele>99.63</ele>
        <time>2014-11-08T13:30:45Z</time>
      </trkpt>
      <trkpt lat="44.4538" lon="0.95845">
        <ele>99.15</ele>
        <time>2014-11-08T13:30:46Z</time>
      </trkpt>
      <trkpt lat="44.45382" lon="0.95849">
        <ele>99.15</ele>
        <time>2014-11-08T13:30:47Z</time>
      </trkpt>
      <trkpt lat="44.45392" lon="0.95875">
        <ele>98.67</ele>
        <time>2014-11-08T13:30:52Z</time>
      </trkpt>
      <trkpt lat="44.45394" lon="0.95882">
        <ele>98.67</ele>
        <time>2014-11-08T13:30:53Z</time>
      </trkpt>
      <trkpt lat="44.45393" lon="0.95888">
        <ele>98.67</ele>
        <time>2014-11-08T13:30:54Z</time>
      </trkpt>
      <trkpt lat="44.4539" lon="0.95894">
        <ele>98.67</ele>
        <time>2014-11-08T13:30:55Z</time>
      </trkpt>
      <trkpt lat="44.45387" lon="0.95899">
        <ele>98.67</ele>
        <time>2014-11-08T13:30:56Z</time>
      </trkpt>
      <trkpt lat="44.45384" lon="0.95904">
        <ele>98.67</ele>
        <time>2014-11-08T13:30:57Z</time>
      </trkpt>
      <trkpt lat="44.45357" lon="0.95944">
        <ele>97.71</ele>
        <time>2014-11-08T13:31:05Z</time>
      </trkpt>
      <trkpt lat="44.45295" lon="0.95974">
        <ele>98.19</ele>
        <time>2014-11-08T13:31:20Z</time>
      </trkpt>
      <trkpt lat="44.45269" lon="0.95986">
        <ele>99.15</ele>
        <time>2014-11-08T13:31:27Z</time>
      </trkpt>
      <trkpt lat="44.45265" lon="0.95989">
        <ele>99.15</ele>
        <time>2014-11-08T13:31:28Z</time>
      </trkpt>
      <trkpt lat="44.45202" lon="0.96046">
        <ele>102.04</ele>
        <time>2014-11-08T13:31:46Z</time>
      </trkpt>
      <trkpt lat="44.45137" lon="0.96109">
        <ele>103.48</ele>
        <time>2014-11-08T13:32:04Z</time>
      </trkpt>
      <trkpt lat="44.45118" lon="0.96126">
        <ele>103.96</ele>
        <time>2014-11-08T13:32:09Z</time>
      </trkpt>
      <trkpt lat="44.45105" lon="0.96142">
        <ele>104.92</ele>
        <time>2014-11-08T13:32:13Z</time>
      </trkpt>
      <trkpt lat="44.45036" lon="0.96215">
        <ele>108.77</ele>
        <time>2014-11-08T13:32:32Z</time>
      </trkpt>
      <trkpt lat="44.44998" lon="0.96266">
        <ele>106.36</ele>
        <time>2014-11-08T13:32:43Z</time>
      </trkpt>
      <trkpt lat="44.44979" lon="0.96298">
        <ele>103.96</ele>
        <time>2014-11-08T13:32:47Z</time>
      </trkpt>
      <trkpt lat="44.44975" lon="0.96307">
        <ele>103.48</ele>
        <time>2014-11-08T13:32:48Z</time>
      </trkpt>
      <trkpt lat="44.44948" lon="0.96398">
        <ele>103</ele>
        <time>2014-11-08T13:32:59Z</time>
      </trkpt>
      <trkpt lat="44.44941" lon="0.96417">
        <ele>103.48</ele>
        <time>2014-11-08T13:33:08Z</time>
      </trkpt>
      <trkpt lat="44.44942" lon="0.96422">
        <ele>103</ele>
        <time>2014-11-08T13:33:10Z</time>
      </trkpt>
      <trkpt lat="44.44944" lon="0.96424">
        <ele>103</ele>
        <time>2014-11-08T13:33:11Z</time>
      </trkpt>
      <trkpt lat="44.44958" lon="0.96439">
        <ele>102.04</ele>
        <time>2014-11-08T13:33:16Z</time>
      </trkpt>
      <trkpt lat="44.44965" lon="0.96447">
        <ele>102.04</ele>
        <time>2014-11-08T13:33:18Z</time>
      </trkpt>
      <trkpt lat="44.44968" lon="0.96451">
        <ele>101.56</ele>
        <time>2014-11-08T13:33:19Z</time>
      </trkpt>
      <trkpt lat="44.45003" lon="0.96489">
        <ele>100.11</ele>
        <time>2014-11-08T13:33:27Z</time>
      </trkpt>
      <trkpt lat="44.45039" lon="0.9653">
        <ele>99.63</ele>
        <time>2014-11-08T13:33:38Z</time>
      </trkpt>
      <trkpt lat="44.45052" lon="0.96536">
        <ele>100.11</ele>
        <time>2014-11-08T13:33:47Z</time>
      </trkpt>
      <trkpt lat="44.45056" lon="0.96536">
        <ele>100.11</ele>
        <time>2014-11-08T13:33:48Z</time>
      </trkpt>
      <trkpt lat="44.4506" lon="0.96536">
        <ele>100.11</ele>
        <time>2014-11-08T13:33:49Z</time>
      </trkpt>
      <trkpt lat="44.45064" lon="0.96536">
        <ele>100.6</ele>
        <time>2014-11-08T13:33:50Z</time>
      </trkpt>
      <trkpt lat="44.45123" lon="0.96534">
        <ele>101.56</ele>
        <time>2014-11-08T13:34:02Z</time>
      </trkpt>
      <trkpt lat="44.45126" lon="0.96537">
        <ele>101.56</ele>
        <time>2014-11-08T13:34:03Z</time>
      </trkpt>
      <trkpt lat="44.45127" lon="0.96542">
        <ele>102.04</ele>
        <time>2014-11-08T13:34:04Z</time>
      </trkpt>
      <trkpt lat="44.45126" lon="0.96547">
        <ele>102.04</ele>
        <time>2014-11-08T13:34:05Z</time>
      </trkpt>
      <trkpt lat="44.45124" lon="0.96552">
        <ele>102.04</ele>
        <time>2014-11-08T13:34:06Z</time>
      </trkpt>
      <trkpt lat="44.45122" lon="0.96558">
        <ele>102.04</ele>
        <time>2014-11-08T13:34:07Z</time>
      </trkpt>
      <trkpt lat="44.45112" lon="0.96584">
        <ele>101.56</ele>
        <time>2014-11-08T13:34:12Z</time>
      </trkpt>
      <trkpt lat="44.4511" lon="0.9659">
        <ele>101.56</ele>
        <time>2014-11-08T13:34:13Z</time>
      </trkpt>
      <trkpt lat="44.45085" lon="0.9666">
        <ele>104.44</ele>
        <time>2014-11-08T13:34:26Z</time>
      </trkpt>
      <trkpt lat="44.45052" lon="0.96728">
        <ele>106.36</ele>
        <time>2014-11-08T13:34:40Z</time>
      </trkpt>
      <trkpt lat="44.45013" lon="0.96804">
        <ele>106.36</ele>
        <time>2014-11-08T13:34:54Z</time>
      </trkpt>
      <trkpt lat="44.44994" lon="0.9684">
        <ele>106.84</ele>
        <time>2014-11-08T13:35:01Z</time>
      </trkpt>
      <trkpt lat="44.44968" lon="0.96894">
        <ele>107.32</ele>
        <time>2014-11-08T13:35:11Z</time>
      </trkpt>
      <trkpt lat="44.44965" lon="0.96899">
        <ele>107.32</ele>
        <time>2014-11-08T13:35:12Z</time>
      </trkpt>
      <trkpt lat="44.4496" lon="0.96909">
        <ele>107.32</ele>
        <time>2014-11-08T13:35:14Z</time>
      </trkpt>
      <trkpt lat="44.44923" lon="0.96981">
        <ele>107.81</ele>
        <time>2014-11-08T13:35:28Z</time>
      </trkpt>
      <trkpt lat="44.44881" lon="0.97064">
        <ele>108.29</ele>
        <time>2014-11-08T13:35:43Z</time>
      </trkpt>
      <trkpt lat="44.44839" lon="0.97139">
        <ele>109.25</ele>
        <time>2014-11-08T13:35:57Z</time>
      </trkpt>
      <trkpt lat="44.44818" lon="0.97177">
        <ele>109.73</ele>
        <time>2014-11-08T13:36:04Z</time>
      </trkpt>
      <trkpt lat="44.44759" lon="0.97275">
        <ele>109.73</ele>
        <time>2014-11-08T13:36:23Z</time>
      </trkpt>
      <trkpt lat="44.44713" lon="0.97347">
        <ele>108.29</ele>
        <time>2014-11-08T13:36:36Z</time>
      </trkpt>
      <trkpt lat="44.44666" lon="0.97432">
        <ele>106.84</ele>
        <time>2014-11-08T13:36:50Z</time>
      </trkpt>
      <trkpt lat="44.44641" lon="0.97523">
        <ele>107.32</ele>
        <time>2014-11-08T13:37:02Z</time>
      </trkpt>
      <trkpt lat="44.44609" lon="0.97645">
        <ele>109.25</ele>
        <time>2014-11-08T13:37:21Z</time>
      </trkpt>
      <trkpt lat="44.44606" lon="0.97728">
        <ele>111.17</ele>
        <time>2014-11-08T13:37:34Z</time>
      </trkpt>
      <trkpt lat="44.44591" lon="0.97811">
        <ele>113.57</ele>
        <time>2014-11-08T13:37:47Z</time>
      </trkpt>
      <trkpt lat="44.44585" lon="0.97906">
        <ele>113.09</ele>
        <time>2014-11-08T13:38:01Z</time>
      </trkpt>
      <trkpt lat="44.44584" lon="0.97913">
        <ele>113.09</ele>
        <time>2014-11-08T13:38:02Z</time>
      </trkpt>
      <trkpt lat="44.44582" lon="0.97921">
        <ele>112.61</ele>
        <time>2014-11-08T13:38:03Z</time>
      </trkpt>
      <trkpt lat="44.44579" lon="0.97928">
        <ele>112.61</ele>
        <time>2014-11-08T13:38:04Z</time>
      </trkpt>
      <trkpt lat="44.44577" lon="0.97935">
        <ele>112.61</ele>
        <time>2014-11-08T13:38:05Z</time>
      </trkpt>
      <trkpt lat="44.44574" lon="0.97941">
        <ele>112.61</ele>
        <time>2014-11-08T13:38:06Z</time>
      </trkpt>
      <trkpt lat="44.44546" lon="0.97997">
        <ele>111.65</ele>
        <time>2014-11-08T13:38:15Z</time>
      </trkpt>
      <trkpt lat="44.44521" lon="0.98108">
        <ele>110.69</ele>
        <time>2014-11-08T13:38:30Z</time>
      </trkpt>
      <trkpt lat="44.44494" lon="0.98236">
        <ele>109.73</ele>
        <time>2014-11-08T13:38:48Z</time>
      </trkpt>
      <trkpt lat="44.44474" lon="0.98363">
        <ele>109.73</ele>
        <time>2014-11-08T13:39:05Z</time>
      </trkpt>
      <trkpt lat="44.44475" lon="0.98501">
        <ele>111.17</ele>
        <time>2014-11-08T13:39:23Z</time>
      </trkpt>
      <trkpt lat="44.4449" lon="0.98632">
        <ele>112.61</ele>
        <time>2014-11-08T13:39:40Z</time>
      </trkpt>
      <trkpt lat="44.44521" lon="0.98751">
        <ele>115.5</ele>
        <time>2014-11-08T13:39:57Z</time>
      </trkpt>
      <trkpt lat="44.44546" lon="0.98865">
        <ele>116.94</ele>
        <time>2014-11-08T13:40:13Z</time>
      </trkpt>
      <trkpt lat="44.44549" lon="0.98924">
        <ele>117.42</ele>
        <time>2014-11-08T13:40:21Z</time>
      </trkpt>
      <trkpt lat="44.44554" lon="0.99007">
        <ele>118.86</ele>
        <time>2014-11-08T13:40:32Z</time>
      </trkpt>
      <trkpt lat="44.44554" lon="0.99015">
        <ele>118.86</ele>
        <time>2014-11-08T13:40:33Z</time>
      </trkpt>
      <trkpt lat="44.44563" lon="0.99171">
        <ele>119.34</ele>
        <time>2014-11-08T13:40:53Z</time>
      </trkpt>
      <trkpt lat="44.44559" lon="0.99197">
        <ele>119.34</ele>
        <time>2014-11-08T13:40:56Z</time>
      </trkpt>
      <trkpt lat="44.44557" lon="0.99205">
        <ele>118.86</ele>
        <time>2014-11-08T13:40:57Z</time>
      </trkpt>
      <trkpt lat="44.44553" lon="0.99213">
        <ele>118.86</ele>
        <time>2014-11-08T13:40:58Z</time>
      </trkpt>
      <trkpt lat="44.44549" lon="0.9922">
        <ele>118.38</ele>
        <time>2014-11-08T13:40:59Z</time>
      </trkpt>
      <trkpt lat="44.44545" lon="0.99226">
        <ele>117.9</ele>
        <time>2014-11-08T13:41:00Z</time>
      </trkpt>
      <trkpt lat="44.4454" lon="0.99232">
        <ele>117.9</ele>
        <time>2014-11-08T13:41:01Z</time>
      </trkpt>
      <trkpt lat="44.44534" lon="0.99237">
        <ele>117.9</ele>
        <time>2014-11-08T13:41:02Z</time>
      </trkpt>
      <trkpt lat="44.44529" lon="0.99242">
        <ele>117.9</ele>
        <time>2014-11-08T13:41:03Z</time>
      </trkpt>
      <trkpt lat="44.44436" lon="0.99322">
        <ele>118.38</ele>
        <time>2014-11-08T13:41:22Z</time>
      </trkpt>
      <trkpt lat="44.44348" lon="0.99424">
        <ele>121.74</ele>
        <time>2014-11-08T13:41:42Z</time>
      </trkpt>
      <trkpt lat="44.44308" lon="0.9947">
        <ele>122.71</ele>
        <time>2014-11-08T13:41:52Z</time>
      </trkpt>
      <trkpt lat="44.44304" lon="0.99474">
        <ele>122.71</ele>
        <time>2014-11-08T13:41:53Z</time>
      </trkpt>
      <trkpt lat="44.44256" lon="0.9953">
        <ele>123.67</ele>
        <time>2014-11-08T13:42:06Z</time>
      </trkpt>
      <trkpt lat="44.44209" lon="0.99622">
        <ele>125.59</ele>
        <time>2014-11-08T13:42:23Z</time>
      </trkpt>
      <trkpt lat="44.44168" lon="0.99715">
        <ele>127.03</ele>
        <time>2014-11-08T13:42:41Z</time>
      </trkpt>
      <trkpt lat="44.44157" lon="0.99735">
        <ele>127.03</ele>
        <time>2014-11-08T13:42:45Z</time>
      </trkpt>
      <trkpt lat="44.44096" lon="0.99793">
        <ele>127.99</ele>
        <time>2014-11-08T13:43:00Z</time>
      </trkpt>
      <trkpt lat="44.43994" lon="0.99849">
        <ele>128.95</ele>
        <time>2014-11-08T13:43:20Z</time>
      </trkpt>
      <trkpt lat="44.43948" lon="0.9987">
        <ele>129.92</ele>
        <time>2014-11-08T13:43:29Z</time>
      </trkpt>
      <trkpt lat="44.43944" lon="0.99873">
        <ele>130.4</ele>
        <time>2014-11-08T13:43:30Z</time>
      </trkpt>
      <trkpt lat="44.4393" lon="0.99883">
        <ele>130.88</ele>
        <time>2014-11-08T13:43:33Z</time>
      </trkpt>
      <trkpt lat="44.43926" lon="0.99888">
        <ele>131.36</ele>
        <time>2014-11-08T13:43:34Z</time>
      </trkpt>
      <trkpt lat="44.43892" lon="0.99934">
        <ele>132.32</ele>
        <time>2014-11-08T13:43:45Z</time>
      </trkpt>
      <trkpt lat="44.43892" lon="0.99938">
        <ele>132.32</ele>
        <time>2014-11-08T13:43:46Z</time>
      </trkpt>
      <trkpt lat="44.43893" lon="0.99941">
        <ele>132.8</ele>
        <time>2014-11-08T13:43:47Z</time>
      </trkpt>
      <trkpt lat="44.43894" lon="0.99945">
        <ele>132.8</ele>
        <time>2014-11-08T13:43:48Z</time>
      </trkpt>
      <trkpt lat="44.43894" lon="0.99948">
        <ele>133.28</ele>
        <time>2014-11-08T13:43:49Z</time>
      </trkpt>
      <trkpt lat="44.43894" lon="0.99951">
        <ele>133.76</ele>
        <time>2014-11-08T13:43:50Z</time>
      </trkpt>
      <trkpt lat="44.43894" lon="0.99954">
        <ele>133.76</ele>
        <time>2014-11-08T13:43:51Z</time>
      </trkpt>
      <trkpt lat="44.43894" lon="0.99957">
        <ele>134.24</ele>
        <time>2014-11-08T13:43:52Z</time>
      </trkpt>
      <trkpt lat="44.43893" lon="0.99984">
        <ele>138.09</ele>
        <time>2014-11-08T13:44:02Z</time>
      </trkpt>
      <trkpt lat="44.43894" lon="0.99989">
        <ele>138.57</ele>
        <time>2014-11-08T13:44:04Z</time>
      </trkpt>
      <trkpt lat="44.43893" lon="1.00028">
        <ele>141.93</ele>
        <time>2014-11-08T13:44:18Z</time>
      </trkpt>
      <trkpt lat="44.43897" lon="1.00051">
        <ele>143.85</ele>
        <time>2014-11-08T13:44:26Z</time>
      </trkpt>
      <trkpt lat="44.43899" lon="1.00065">
        <ele>143.37</ele>
        <time>2014-11-08T13:44:30Z</time>
      </trkpt>
      <trkpt lat="44.4391" lon="1.00102">
        <ele>141.45</ele>
        <time>2014-11-08T13:44:40Z</time>
      </trkpt>
      <trkpt lat="44.43923" lon="1.00146">
        <ele>142.41</ele>
        <time>2014-11-08T13:44:52Z</time>
      </trkpt>
      <trkpt lat="44.4394" lon="1.00184">
        <ele>145.3</ele>
        <time>2014-11-08T13:45:05Z</time>
      </trkpt>
      <trkpt lat="44.43943" lon="1.002">
        <ele>145.3</ele>
        <time>2014-11-08T13:45:10Z</time>
      </trkpt>
      <trkpt lat="44.43946" lon="1.00215">
        <ele>146.26</ele>
        <time>2014-11-08T13:45:15Z</time>
      </trkpt>
      <trkpt lat="44.43955" lon="1.00245">
        <ele>149.14</ele>
        <time>2014-11-08T13:45:30Z</time>
      </trkpt>
      <trkpt lat="44.43955" lon="1.00247">
        <ele>147.7</ele>
        <time>2014-11-08T13:45:46Z</time>
      </trkpt>
      <trkpt lat="44.43955" lon="1.00247">
        <ele>147.7</ele>
        <time>2014-11-08T13:45:48Z</time>
      </trkpt>
      <trkpt lat="44.43948" lon="1.00248">
        <ele>148.18</ele>
        <time>2014-11-08T13:45:53Z</time>
      </trkpt>
      <trkpt lat="44.43941" lon="1.00246">
        <ele>149.14</ele>
        <time>2014-11-08T13:46:05Z</time>
      </trkpt>
      <trkpt lat="44.4394" lon="1.00247">
        <ele>149.14</ele>
        <time>2014-11-08T13:46:24Z</time>
      </trkpt>
      <trkpt lat="44.4394" lon="1.00248">
        <ele>149.62</ele>
        <time>2014-11-08T13:46:47Z</time>
      </trkpt>
      <trkpt lat="44.43941" lon="1.00248">
        <ele>150.1</ele>
        <time>2014-11-08T13:47:04Z</time>
      </trkpt>
      <trkpt lat="44.43941" lon="1.00248">
        <ele>152.51</ele>
        <time>2014-11-08T13:47:24Z</time>
      </trkpt>
      <trkpt lat="44.4394" lon="1.00248">
        <ele>152.99</ele>
        <time>2014-11-08T13:47:41Z</time>
      </trkpt>
      <trkpt lat="44.4394" lon="1.0025">
        <ele>152.51</ele>
        <time>2014-11-08T13:48:06Z</time>
      </trkpt>
      <trkpt lat="44.43941" lon="1.0025">
        <ele>152.03</ele>
        <time>2014-11-08T13:48:41Z</time>
      </trkpt>
      <trkpt lat="44.4394" lon="1.00249">
        <ele>152.99</ele>
        <time>2014-11-08T13:48:53Z</time>
      </trkpt>
      <trkpt lat="44.4394" lon="1.00249">
        <ele>152.99</ele>
        <time>2014-11-08T13:49:10Z</time>
      </trkpt>
      <trkpt lat="44.43941" lon="1.00248">
        <ele>153.47</ele>
        <time>2014-11-08T13:49:31Z</time>
      </trkpt>
      <trkpt lat="44.43941" lon="1.00248">
        <ele>152.99</ele>
        <time>2014-11-08T13:49:44Z</time>
      </trkpt>
      <trkpt lat="44.43944" lon="1.00249">
        <ele>152.99</ele>
        <time>2014-11-08T13:49:47Z</time>
      </trkpt>
      <trkpt lat="44.43954" lon="1.00249">
        <ele>152.99</ele>
        <time>2014-11-08T13:49:54Z</time>
      </trkpt>
      <trkpt lat="44.43957" lon="1.00254">
        <ele>153.47</ele>
        <time>2014-11-08T13:49:57Z</time>
      </trkpt>
      <trkpt lat="44.43976" lon="1.00289">
        <ele>152.99</ele>
        <time>2014-11-08T13:50:12Z</time>
      </trkpt>
      <trkpt lat="44.43996" lon="1.00316">
        <ele>154.43</ele>
        <time>2014-11-08T13:50:24Z</time>
      </trkpt>
      <trkpt lat="44.44018" lon="1.00344">
        <ele>154.91</ele>
        <time>2014-11-08T13:50:36Z</time>
      </trkpt>
      <trkpt lat="44.44046" lon="1.0037">
        <ele>153.47</ele>
        <time>2014-11-08T13:50:48Z</time>
      </trkpt>
      <trkpt lat="44.44085" lon="1.00383">
        <ele>151.06</ele>
        <time>2014-11-08T13:51:00Z</time>
      </trkpt>
      <trkpt lat="44.44128" lon="1.0039">
        <ele>159.72</ele>
        <time>2014-11-08T13:51:13Z</time>
      </trkpt>
      <trkpt lat="44.4416" lon="1.00383">
        <ele>169.81</ele>
        <time>2014-11-08T13:51:24Z</time>
      </trkpt>
      <trkpt lat="44.44192" lon="1.00397">
        <ele>174.14</ele>
        <time>2014-11-08T13:51:34Z</time>
      </trkpt>
      <trkpt lat="44.44229" lon="1.00419">
        <ele>177.98</ele>
        <time>2014-11-08T13:51:47Z</time>
      </trkpt>
      <trkpt lat="44.44264" lon="1.00441">
        <ele>179.9</ele>
        <time>2014-11-08T13:52:01Z</time>
      </trkpt>
      <trkpt lat="44.44285" lon="1.00456">
        <ele>183.75</ele>
        <time>2014-11-08T13:52:12Z</time>
      </trkpt>
      <trkpt lat="44.44306" lon="1.00477">
        <ele>184.23</ele>
        <time>2014-11-08T13:52:23Z</time>
      </trkpt>
      <trkpt lat="44.44322" lon="1.00503">
        <ele>188.08</ele>
        <time>2014-11-08T13:52:35Z</time>
      </trkpt>
      <trkpt lat="44.44326" lon="1.00519">
        <ele>189.52</ele>
        <time>2014-11-08T13:52:40Z</time>
      </trkpt>
      <trkpt lat="44.44331" lon="1.00573">
        <ele>188.56</ele>
        <time>2014-11-08T13:52:55Z</time>
      </trkpt>
      <trkpt lat="44.44333" lon="1.00597">
        <ele>187.59</ele>
        <time>2014-11-08T13:53:03Z</time>
      </trkpt>
      <trkpt lat="44.4433" lon="1.00603">
        <ele>186.15</ele>
        <time>2014-11-08T13:53:08Z</time>
      </trkpt>
      <trkpt lat="44.44316" lon="1.0059">
        <ele>188.08</ele>
        <time>2014-11-08T13:53:21Z</time>
      </trkpt>
      <trkpt lat="44.44313" lon="1.00586">
        <ele>188.56</ele>
        <time>2014-11-08T13:53:23Z</time>
      </trkpt>
      <trkpt lat="44.44281" lon="1.0057">
        <ele>187.11</ele>
        <time>2014-11-08T13:53:40Z</time>
      </trkpt>
      <trkpt lat="44.44257" lon="1.00598">
        <ele>189.52</ele>
        <time>2014-11-08T13:53:55Z</time>
      </trkpt>
      <trkpt lat="44.44247" lon="1.00632">
        <ele>193.36</ele>
        <time>2014-11-08T13:54:10Z</time>
      </trkpt>
      <trkpt lat="44.44244" lon="1.00651">
        <ele>195.77</ele>
        <time>2014-11-08T13:54:18Z</time>
      </trkpt>
      <trkpt lat="44.44249" lon="1.00685">
        <ele>199.13</ele>
        <time>2014-11-08T13:54:34Z</time>
      </trkpt>
      <trkpt lat="44.44261" lon="1.00711">
        <ele>203.46</ele>
        <time>2014-11-08T13:54:48Z</time>
      </trkpt>
      <trkpt lat="44.44272" lon="1.00736">
        <ele>205.86</ele>
        <time>2014-11-08T13:55:00Z</time>
      </trkpt>
      <trkpt lat="44.44273" lon="1.00746">
        <ele>206.82</ele>
        <time>2014-11-08T13:55:04Z</time>
      </trkpt>
      <trkpt lat="44.44267" lon="1.00788">
        <ele>209.22</ele>
        <time>2014-11-08T13:55:20Z</time>
      </trkpt>
      <trkpt lat="44.44267" lon="1.00791">
        <ele>209.22</ele>
        <time>2014-11-08T13:55:21Z</time>
      </trkpt>
      <trkpt lat="44.44282" lon="1.00808">
        <ele>213.07</ele>
        <time>2014-11-08T13:55:35Z</time>
      </trkpt>
      <trkpt lat="44.44317" lon="1.00819">
        <ele>212.11</ele>
        <time>2014-11-08T13:55:51Z</time>
      </trkpt>
      <trkpt lat="44.44345" lon="1.00832">
        <ele>214.03</ele>
        <time>2014-11-08T13:56:04Z</time>
      </trkpt>
      <trkpt lat="44.44354" lon="1.00841">
        <ele>214.51</ele>
        <time>2014-11-08T13:56:10Z</time>
      </trkpt>
      <trkpt lat="44.44366" lon="1.00846">
        <ele>215.47</ele>
        <time>2014-11-08T13:56:16Z</time>
      </trkpt>
      <trkpt lat="44.44381" lon="1.00867">
        <ele>217.88</ele>
        <time>2014-11-08T13:56:29Z</time>
      </trkpt>
      <trkpt lat="44.4438" lon="1.00888">
        <ele>219.32</ele>
        <time>2014-11-08T13:56:39Z</time>
      </trkpt>
      <trkpt lat="44.44377" lon="1.00903">
        <ele>220.28</ele>
        <time>2014-11-08T13:56:46Z</time>
      </trkpt>
      <trkpt lat="44.44365" lon="1.00933">
        <ele>224.61</ele>
        <time>2014-11-08T13:57:00Z</time>
      </trkpt>
      <trkpt lat="44.4435" lon="1.00974">
        <ele>227.01</ele>
        <time>2014-11-08T13:57:14Z</time>
      </trkpt>
      <trkpt lat="44.44331" lon="1.01012">
        <ele>227.97</ele>
        <time>2014-11-08T13:57:27Z</time>
      </trkpt>
      <trkpt lat="44.44324" lon="1.0103">
        <ele>227.01</ele>
        <time>2014-11-08T13:57:34Z</time>
      </trkpt>
      <trkpt lat="44.44324" lon="1.01032">
        <ele>227.01</ele>
        <time>2014-11-08T13:57:35Z</time>
      </trkpt>
      <trkpt lat="44.44323" lon="1.01033">
        <ele>227.01</ele>
        <time>2014-11-08T13:57:36Z</time>
      </trkpt>
      <trkpt lat="44.44322" lon="1.01035">
        <ele>226.53</ele>
        <time>2014-11-08T13:57:50Z</time>
      </trkpt>
      <trkpt lat="44.44322" lon="1.01035">
        <ele>225.57</ele>
        <time>2014-11-08T13:58:07Z</time>
      </trkpt>
      <trkpt lat="44.44322" lon="1.01035">
        <ele>226.05</ele>
        <time>2014-11-08T13:58:30Z</time>
      </trkpt>
      <trkpt lat="44.44322" lon="1.01034">
        <ele>226.53</ele>
        <time>2014-11-08T13:58:51Z</time>
      </trkpt>
      <trkpt lat="44.44319" lon="1.01037">
        <ele>227.01</ele>
        <time>2014-11-08T13:59:09Z</time>
      </trkpt>
      <trkpt lat="44.44319" lon="1.01036">
        <ele>226.53</ele>
        <time>2014-11-08T13:59:43Z</time>
      </trkpt>
      <trkpt lat="44.44319" lon="1.01036">
        <ele>226.05</ele>
        <time>2014-11-08T14:00:10Z</time>
      </trkpt>
      <trkpt lat="44.44319" lon="1.01037">
        <ele>225.09</ele>
        <time>2014-11-08T14:00:43Z</time>
      </trkpt>
      <trkpt lat="44.44319" lon="1.01037">
        <ele>225.09</ele>
        <time>2014-11-08T14:01:10Z</time>
      </trkpt>
      <trkpt lat="44.4432" lon="1.01036">
        <ele>225.57</ele>
        <time>2014-11-08T14:01:41Z</time>
      </trkpt>
      <trkpt lat="44.4432" lon="1.01036">
        <ele>225.09</ele>
        <time>2014-11-08T14:02:14Z</time>
      </trkpt>
      <trkpt lat="44.44319" lon="1.01036">
        <ele>225.09</ele>
        <time>2014-11-08T14:02:34Z</time>
      </trkpt>
      <trkpt lat="44.44317" lon="1.01036">
        <ele>225.09</ele>
        <time>2014-11-08T14:02:35Z</time>
      </trkpt>
      <trkpt lat="44.44288" lon="1.01053">
        <ele>225.57</ele>
        <time>2014-11-08T14:02:45Z</time>
      </trkpt>
      <trkpt lat="44.44276" lon="1.01069">
        <ele>225.57</ele>
        <time>2014-11-08T14:02:49Z</time>
      </trkpt>
      <trkpt lat="44.44265" lon="1.0108">
        <ele>225.57</ele>
        <time>2014-11-08T14:02:52Z</time>
      </trkpt>
      <trkpt lat="44.44261" lon="1.01083">
        <ele>225.57</ele>
        <time>2014-11-08T14:02:53Z</time>
      </trkpt>
      <trkpt lat="44.44257" lon="1.01086">
        <ele>226.05</ele>
        <time>2014-11-08T14:02:54Z</time>
      </trkpt>
      <trkpt lat="44.44255" lon="1.01089">
        <ele>226.05</ele>
        <time>2014-11-08T14:02:55Z</time>
      </trkpt>
      <trkpt lat="44.44262" lon="1.01108">
        <ele>227.01</ele>
        <time>2014-11-08T14:03:00Z</time>
      </trkpt>
      <trkpt lat="44.44265" lon="1.01131">
        <ele>227.01</ele>
        <time>2014-11-08T14:03:05Z</time>
      </trkpt>
      <trkpt lat="44.44226" lon="1.01193">
        <ele>223.64</ele>
        <time>2014-11-08T14:03:19Z</time>
      </trkpt>
      <trkpt lat="44.44224" lon="1.01199">
        <ele>223.64</ele>
        <time>2014-11-08T14:03:20Z</time>
      </trkpt>
      <trkpt lat="44.44219" lon="1.0121">
        <ele>223.64</ele>
        <time>2014-11-08T14:03:22Z</time>
      </trkpt>
      <trkpt lat="44.44206" lon="1.01231">
        <ele>223.16</ele>
        <time>2014-11-08T14:03:26Z</time>
      </trkpt>
      <trkpt lat="44.44195" lon="1.01242">
        <ele>223.16</ele>
        <time>2014-11-08T14:03:29Z</time>
      </trkpt>
      <trkpt lat="44.44191" lon="1.01242">
        <ele>223.16</ele>
        <time>2014-11-08T14:03:30Z</time>
      </trkpt>
      <trkpt lat="44.44187" lon="1.0124">
        <ele>223.16</ele>
        <time>2014-11-08T14:03:31Z</time>
      </trkpt>
      <trkpt lat="44.44183" lon="1.01237">
        <ele>223.16</ele>
        <time>2014-11-08T14:03:32Z</time>
      </trkpt>
      <trkpt lat="44.4417" lon="1.01229">
        <ele>223.64</ele>
        <time>2014-11-08T14:03:35Z</time>
      </trkpt>
      <trkpt lat="44.44138" lon="1.01216">
        <ele>224.61</ele>
        <time>2014-11-08T14:03:46Z</time>
      </trkpt>
      <trkpt lat="44.44136" lon="1.01217">
        <ele>224.61</ele>
        <time>2014-11-08T14:03:47Z</time>
      </trkpt>
      <trkpt lat="44.44099" lon="1.0123">
        <ele>224.12</ele>
        <time>2014-11-08T14:03:58Z</time>
      </trkpt>
      <trkpt lat="44.44088" lon="1.01235">
        <ele>223.64</ele>
        <time>2014-11-08T14:04:00Z</time>
      </trkpt>
      <trkpt lat="44.44084" lon="1.0124">
        <ele>223.16</ele>
        <time>2014-11-08T14:04:01Z</time>
      </trkpt>
      <trkpt lat="44.4408" lon="1.01246">
        <ele>223.16</ele>
        <time>2014-11-08T14:04:02Z</time>
      </trkpt>
      <trkpt lat="44.44078" lon="1.01253">
        <ele>222.68</ele>
        <time>2014-11-08T14:04:03Z</time>
      </trkpt>
      <trkpt lat="44.44077" lon="1.01262">
        <ele>222.2</ele>
        <time>2014-11-08T14:04:04Z</time>
      </trkpt>
      <trkpt lat="44.44077" lon="1.0127">
        <ele>221.72</ele>
        <time>2014-11-08T14:04:05Z</time>
      </trkpt>
      <trkpt lat="44.44076" lon="1.01279">
        <ele>221.24</ele>
        <time>2014-11-08T14:04:06Z</time>
      </trkpt>
      <trkpt lat="44.44081" lon="1.01331">
        <ele>219.32</ele>
        <time>2014-11-08T14:04:12Z</time>
      </trkpt>
      <trkpt lat="44.44083" lon="1.01373">
        <ele>219.32</ele>
        <time>2014-11-08T14:04:17Z</time>
      </trkpt>
      <trkpt lat="44.44083" lon="1.01412">
        <ele>219.32</ele>
        <time>2014-11-08T14:04:22Z</time>
      </trkpt>
      <trkpt lat="44.4408" lon="1.01523">
        <ele>221.72</ele>
        <time>2014-11-08T14:04:37Z</time>
      </trkpt>
      <trkpt lat="44.44074" lon="1.01616">
        <ele>221.72</ele>
        <time>2014-11-08T14:04:51Z</time>
      </trkpt>
      <trkpt lat="44.44073" lon="1.01643">
        <ele>222.2</ele>
        <time>2014-11-08T14:04:56Z</time>
      </trkpt>
      <trkpt lat="44.44074" lon="1.01646">
        <ele>222.2</ele>
        <time>2014-11-08T14:04:57Z</time>
      </trkpt>
      <trkpt lat="44.44077" lon="1.01649">
        <ele>222.2</ele>
        <time>2014-11-08T14:04:58Z</time>
      </trkpt>
      <trkpt lat="44.44079" lon="1.01651">
        <ele>222.2</ele>
        <time>2014-11-08T14:04:59Z</time>
      </trkpt>
      <trkpt lat="44.44082" lon="1.01652">
        <ele>221.72</ele>
        <time>2014-11-08T14:05:00Z</time>
      </trkpt>
      <trkpt lat="44.44085" lon="1.01652">
        <ele>221.24</ele>
        <time>2014-11-08T14:05:01Z</time>
      </trkpt>
      <trkpt lat="44.44088" lon="1.0165">
        <ele>221.24</ele>
        <time>2014-11-08T14:05:02Z</time>
      </trkpt>
      <trkpt lat="44.44091" lon="1.01646">
        <ele>221.24</ele>
        <time>2014-11-08T14:05:03Z</time>
      </trkpt>
      <trkpt lat="44.44094" lon="1.01642">
        <ele>221.24</ele>
        <time>2014-11-08T14:05:04Z</time>
      </trkpt>
      <trkpt lat="44.44098" lon="1.01638">
        <ele>220.76</ele>
        <time>2014-11-08T14:05:05Z</time>
      </trkpt>
      <trkpt lat="44.44122" lon="1.01613">
        <ele>218.84</ele>
        <time>2014-11-08T14:05:11Z</time>
      </trkpt>
      <trkpt lat="44.44127" lon="1.01608">
        <ele>218.36</ele>
        <time>2014-11-08T14:05:12Z</time>
      </trkpt>
      <trkpt lat="44.44157" lon="1.01581">
        <ele>216.43</ele>
        <time>2014-11-08T14:05:18Z</time>
      </trkpt>
      <trkpt lat="44.44162" lon="1.0158">
        <ele>215.95</ele>
        <time>2014-11-08T14:05:19Z</time>
      </trkpt>
      <trkpt lat="44.44168" lon="1.01582">
        <ele>215.47</ele>
        <time>2014-11-08T14:05:20Z</time>
      </trkpt>
      <trkpt lat="44.44172" lon="1.01589">
        <ele>215.47</ele>
        <time>2014-11-08T14:05:21Z</time>
      </trkpt>
      <trkpt lat="44.44175" lon="1.01597">
        <ele>214.99</ele>
        <time>2014-11-08T14:05:22Z</time>
      </trkpt>
      <trkpt lat="44.44177" lon="1.01606">
        <ele>215.47</ele>
        <time>2014-11-08T14:05:23Z</time>
      </trkpt>
      <trkpt lat="44.44183" lon="1.01633">
        <ele>214.51</ele>
        <time>2014-11-08T14:05:26Z</time>
      </trkpt>
      <trkpt lat="44.4419" lon="1.01775">
        <ele>210.19</ele>
        <time>2014-11-08T14:05:39Z</time>
      </trkpt>
      <trkpt lat="44.4419" lon="1.01797">
        <ele>209.22</ele>
        <time>2014-11-08T14:05:41Z</time>
      </trkpt>
      <trkpt lat="44.44192" lon="1.01807">
        <ele>209.22</ele>
        <time>2014-11-08T14:05:42Z</time>
      </trkpt>
      <trkpt lat="44.44194" lon="1.01817">
        <ele>209.22</ele>
        <time>2014-11-08T14:05:43Z</time>
      </trkpt>
      <trkpt lat="44.44197" lon="1.01825">
        <ele>208.74</ele>
        <time>2014-11-08T14:05:44Z</time>
      </trkpt>
      <trkpt lat="44.44201" lon="1.01832">
        <ele>209.22</ele>
        <time>2014-11-08T14:05:45Z</time>
      </trkpt>
      <trkpt lat="44.44204" lon="1.01838">
        <ele>209.22</ele>
        <time>2014-11-08T14:05:46Z</time>
      </trkpt>
      <trkpt lat="44.44228" lon="1.01882">
        <ele>211.15</ele>
        <time>2014-11-08T14:05:54Z</time>
      </trkpt>
      <trkpt lat="44.44232" lon="1.01894">
        <ele>211.63</ele>
        <time>2014-11-08T14:05:56Z</time>
      </trkpt>
      <trkpt lat="44.44234" lon="1.01901">
        <ele>211.63</ele>
        <time>2014-11-08T14:05:57Z</time>
      </trkpt>
      <trkpt lat="44.44238" lon="1.01919">
        <ele>212.59</ele>
        <time>2014-11-08T14:06:00Z</time>
      </trkpt>
      <trkpt lat="44.44242" lon="1.01944">
        <ele>213.07</ele>
        <time>2014-11-08T14:06:06Z</time>
      </trkpt>
      <trkpt lat="44.44244" lon="1.01946">
        <ele>213.07</ele>
        <time>2014-11-08T14:06:07Z</time>
      </trkpt>
      <trkpt lat="44.44246" lon="1.01948">
        <ele>212.59</ele>
        <time>2014-11-08T14:06:08Z</time>
      </trkpt>
      <trkpt lat="44.44248" lon="1.01948">
        <ele>212.59</ele>
        <time>2014-11-08T14:06:09Z</time>
      </trkpt>
      <trkpt lat="44.4425" lon="1.01949">
        <ele>212.59</ele>
        <time>2014-11-08T14:06:10Z</time>
      </trkpt>
      <trkpt lat="44.44251" lon="1.01949">
        <ele>212.11</ele>
        <time>2014-11-08T14:06:11Z</time>
      </trkpt>
      <trkpt lat="44.44271" lon="1.01954">
        <ele>208.74</ele>
        <time>2014-11-08T14:06:23Z</time>
      </trkpt>
      <trkpt lat="44.44304" lon="1.01953">
        <ele>205.86</ele>
        <time>2014-11-08T14:06:34Z</time>
      </trkpt>
      <trkpt lat="44.44306" lon="1.01951">
        <ele>205.86</ele>
        <time>2014-11-08T14:06:35Z</time>
      </trkpt>
      <trkpt lat="44.44307" lon="1.01949">
        <ele>205.38</ele>
        <time>2014-11-08T14:06:36Z</time>
      </trkpt>
      <trkpt lat="44.44313" lon="1.01936">
        <ele>204.9</ele>
        <time>2014-11-08T14:06:41Z</time>
      </trkpt>
      <trkpt lat="44.44325" lon="1.01914">
        <ele>203.94</ele>
        <time>2014-11-08T14:06:51Z</time>
      </trkpt>
      <trkpt lat="44.4434" lon="1.01905">
        <ele>201.53</ele>
        <time>2014-11-08T14:06:56Z</time>
      </trkpt>
      <trkpt lat="44.44362" lon="1.01882">
        <ele>199.13</ele>
        <time>2014-11-08T14:07:01Z</time>
      </trkpt>
      <trkpt lat="44.44398" lon="1.01888">
        <ele>195.77</ele>
        <time>2014-11-08T14:07:08Z</time>
      </trkpt>
      <trkpt lat="44.44405" lon="1.01899">
        <ele>194.8</ele>
        <time>2014-11-08T14:07:10Z</time>
      </trkpt>
      <trkpt lat="44.44412" lon="1.01912">
        <ele>194.8</ele>
        <time>2014-11-08T14:07:12Z</time>
      </trkpt>
      <trkpt lat="44.44427" lon="1.01931">
        <ele>194.32</ele>
        <time>2014-11-08T14:07:16Z</time>
      </trkpt>
      <trkpt lat="44.44441" lon="1.01941">
        <ele>193.84</ele>
        <time>2014-11-08T14:07:19Z</time>
      </trkpt>
      <trkpt lat="44.44477" lon="1.02">
        <ele>191.44</ele>
        <time>2014-11-08T14:07:28Z</time>
      </trkpt>
      <trkpt lat="44.44482" lon="1.02004">
        <ele>190.96</ele>
        <time>2014-11-08T14:07:29Z</time>
      </trkpt>
      <trkpt lat="44.44505" lon="1.02056">
        <ele>187.59</ele>
        <time>2014-11-08T14:07:36Z</time>
      </trkpt>
      <trkpt lat="44.44515" lon="1.02091">
        <ele>185.19</ele>
        <time>2014-11-08T14:07:41Z</time>
      </trkpt>
      <trkpt lat="44.44574" lon="1.02117">
        <ele>184.23</ele>
        <time>2014-11-08T14:07:54Z</time>
      </trkpt>
      <trkpt lat="44.44601" lon="1.02121">
        <ele>185.19</ele>
        <time>2014-11-08T14:07:59Z</time>
      </trkpt>
      <trkpt lat="44.44656" lon="1.02117">
        <ele>186.15</ele>
        <time>2014-11-08T14:08:07Z</time>
      </trkpt>
      <trkpt lat="44.44681" lon="1.0212">
        <ele>185.19</ele>
        <time>2014-11-08T14:08:11Z</time>
      </trkpt>
      <trkpt lat="44.44726" lon="1.02143">
        <ele>183.75</ele>
        <time>2014-11-08T14:08:19Z</time>
      </trkpt>
      <trkpt lat="44.44836" lon="1.02156">
        <ele>178.94</ele>
        <time>2014-11-08T14:08:35Z</time>
      </trkpt>
      <trkpt lat="44.44898" lon="1.02172">
        <ele>177.02</ele>
        <time>2014-11-08T14:08:46Z</time>
      </trkpt>
      <trkpt lat="44.44917" lon="1.02182">
        <ele>177.02</ele>
        <time>2014-11-08T14:08:49Z</time>
      </trkpt>
      <trkpt lat="44.44937" lon="1.02216">
        <ele>177.02</ele>
        <time>2014-11-08T14:08:54Z</time>
      </trkpt>
      <trkpt lat="44.4494" lon="1.02233">
        <ele>176.06</ele>
        <time>2014-11-08T14:09:04Z</time>
      </trkpt>
      <trkpt lat="44.44949" lon="1.02254">
        <ele>175.1</ele>
        <time>2014-11-08T14:09:11Z</time>
      </trkpt>
      <trkpt lat="44.44993" lon="1.02314">
        <ele>173.66</ele>
        <time>2014-11-08T14:09:23Z</time>
      </trkpt>
      <trkpt lat="44.45009" lon="1.02332">
        <ele>173.17</ele>
        <time>2014-11-08T14:09:27Z</time>
      </trkpt>
      <trkpt lat="44.45043" lon="1.02387">
        <ele>171.73</ele>
        <time>2014-11-08T14:09:39Z</time>
      </trkpt>
      <trkpt lat="44.45056" lon="1.02395">
        <ele>170.29</ele>
        <time>2014-11-08T14:09:43Z</time>
      </trkpt>
      <trkpt lat="44.45099" lon="1.02445">
        <ele>166.93</ele>
        <time>2014-11-08T14:09:53Z</time>
      </trkpt>
      <trkpt lat="44.45126" lon="1.0243">
        <ele>165</ele>
        <time>2014-11-08T14:09:59Z</time>
      </trkpt>
      <trkpt lat="44.45143" lon="1.02403">
        <ele>164.52</ele>
        <time>2014-11-08T14:10:03Z</time>
      </trkpt>
      <trkpt lat="44.45158" lon="1.02382">
        <ele>164.52</ele>
        <time>2014-11-08T14:10:06Z</time>
      </trkpt>
      <trkpt lat="44.45252" lon="1.02347">
        <ele>162.6</ele>
        <time>2014-11-08T14:10:19Z</time>
      </trkpt>
      <trkpt lat="44.45351" lon="1.02299">
        <ele>158.75</ele>
        <time>2014-11-08T14:10:31Z</time>
      </trkpt>
      <trkpt lat="44.45449" lon="1.02209">
        <ele>154.91</ele>
        <time>2014-11-08T14:10:44Z</time>
      </trkpt>
      <trkpt lat="44.45518" lon="1.02161">
        <ele>152.51</ele>
        <time>2014-11-08T14:10:55Z</time>
      </trkpt>
      <trkpt lat="44.45539" lon="1.02155">
        <ele>152.03</ele>
        <time>2014-11-08T14:10:59Z</time>
      </trkpt>
      <trkpt lat="44.4555" lon="1.02174">
        <ele>153.47</ele>
        <time>2014-11-08T14:11:06Z</time>
      </trkpt>
      <trkpt lat="44.45556" lon="1.02183">
        <ele>154.91</ele>
        <time>2014-11-08T14:11:10Z</time>
      </trkpt>
      <trkpt lat="44.45589" lon="1.0222">
        <ele>160.2</ele>
        <time>2014-11-08T14:11:26Z</time>
      </trkpt>
      <trkpt lat="44.45615" lon="1.02243">
        <ele>162.6</ele>
        <time>2014-11-08T14:11:39Z</time>
      </trkpt>
      <trkpt lat="44.45627" lon="1.02249">
        <ele>161.16</ele>
        <time>2014-11-08T14:11:56Z</time>
      </trkpt>
      <trkpt lat="44.45636" lon="1.02251">
        <ele>160.68</ele>
        <time>2014-11-08T14:11:58Z</time>
      </trkpt>
      <trkpt lat="44.45656" lon="1.02258">
        <ele>159.72</ele>
        <time>2014-11-08T14:12:02Z</time>
      </trkpt>
      <trkpt lat="44.45674" lon="1.02262">
        <ele>159.24</ele>
        <time>2014-11-08T14:12:06Z</time>
      </trkpt>
      <trkpt lat="44.45693" lon="1.0227">
        <ele>158.75</ele>
        <time>2014-11-08T14:12:10Z</time>
      </trkpt>
      <trkpt lat="44.45703" lon="1.02278">
        <ele>158.75</ele>
        <time>2014-11-08T14:12:12Z</time>
      </trkpt>
      <trkpt lat="44.45726" lon="1.02287">
        <ele>158.27</ele>
        <time>2014-11-08T14:12:16Z</time>
      </trkpt>
      <trkpt lat="44.45738" lon="1.02287">
        <ele>157.79</ele>
        <time>2014-11-08T14:12:18Z</time>
      </trkpt>
      <trkpt lat="44.45754" lon="1.02296">
        <ele>157.79</ele>
        <time>2014-11-08T14:12:22Z</time>
      </trkpt>
      <trkpt lat="44.45756" lon="1.02301">
        <ele>157.79</ele>
        <time>2014-11-08T14:12:23Z</time>
      </trkpt>
      <trkpt lat="44.45766" lon="1.0233">
        <ele>158.27</ele>
        <time>2014-11-08T14:12:28Z</time>
      </trkpt>
      <trkpt lat="44.45767" lon="1.02337">
        <ele>158.27</ele>
        <time>2014-11-08T14:12:29Z</time>
      </trkpt>
      <trkpt lat="44.45768" lon="1.02343">
        <ele>158.27</ele>
        <time>2014-11-08T14:12:30Z</time>
      </trkpt>
      <trkpt lat="44.45774" lon="1.02383">
        <ele>158.75</ele>
        <time>2014-11-08T14:12:36Z</time>
      </trkpt>
      <trkpt lat="44.4578" lon="1.02422">
        <ele>158.75</ele>
        <time>2014-11-08T14:12:42Z</time>
      </trkpt>
      <trkpt lat="44.45781" lon="1.02428">
        <ele>158.27</ele>
        <time>2014-11-08T14:12:43Z</time>
      </trkpt>
      <trkpt lat="44.45783" lon="1.02434">
        <ele>158.27</ele>
        <time>2014-11-08T14:12:44Z</time>
      </trkpt>
      <trkpt lat="44.45785" lon="1.0244">
        <ele>158.27</ele>
        <time>2014-11-08T14:12:45Z</time>
      </trkpt>
      <trkpt lat="44.45788" lon="1.02446">
        <ele>157.79</ele>
        <time>2014-11-08T14:12:46Z</time>
      </trkpt>
      <trkpt lat="44.45797" lon="1.02462">
        <ele>157.79</ele>
        <time>2014-11-08T14:12:49Z</time>
      </trkpt>
      <trkpt lat="44.45824" lon="1.02534">
        <ele>158.27</ele>
        <time>2014-11-08T14:13:02Z</time>
      </trkpt>
      <trkpt lat="44.45831" lon="1.02607">
        <ele>160.68</ele>
        <time>2014-11-08T14:13:16Z</time>
      </trkpt>
      <trkpt lat="44.45834" lon="1.02679">
        <ele>162.6</ele>
        <time>2014-11-08T14:13:30Z</time>
      </trkpt>
      <trkpt lat="44.4585" lon="1.02718">
        <ele>163.56</ele>
        <time>2014-11-08T14:13:42Z</time>
      </trkpt>
      <trkpt lat="44.45852" lon="1.02721">
        <ele>164.04</ele>
        <time>2014-11-08T14:13:44Z</time>
      </trkpt>
      <trkpt lat="44.45854" lon="1.02721">
        <ele>164.04</ele>
        <time>2014-11-08T14:13:45Z</time>
      </trkpt>
      <trkpt lat="44.45857" lon="1.02714">
        <ele>165.48</ele>
        <time>2014-11-08T14:13:52Z</time>
      </trkpt>
      <trkpt lat="44.45868" lon="1.02698">
        <ele>169.33</ele>
        <time>2014-11-08T14:14:04Z</time>
      </trkpt>
      <trkpt lat="44.45872" lon="1.02699">
        <ele>169.81</ele>
        <time>2014-11-08T14:14:07Z</time>
      </trkpt>
      <trkpt lat="44.45899" lon="1.02697">
        <ele>175.1</ele>
        <time>2014-11-08T14:14:24Z</time>
      </trkpt>
      <trkpt lat="44.45904" lon="1.02678">
        <ele>177.98</ele>
        <time>2014-11-08T14:14:37Z</time>
      </trkpt>
      <trkpt lat="44.45905" lon="1.02663">
        <ele>180.38</ele>
        <time>2014-11-08T14:14:47Z</time>
      </trkpt>
      <trkpt lat="44.45902" lon="1.02652">
        <ele>181.35</ele>
        <time>2014-11-08T14:14:54Z</time>
      </trkpt>
      <trkpt lat="44.459" lon="1.02652">
        <ele>181.35</ele>
        <time>2014-11-08T14:14:56Z</time>
      </trkpt>
      <trkpt lat="44.459" lon="1.02656">
        <ele>181.83</ele>
        <time>2014-11-08T14:15:06Z</time>
      </trkpt>
      <trkpt lat="44.45901" lon="1.02655">
        <ele>179.9</ele>
        <time>2014-11-08T14:15:24Z</time>
      </trkpt>
      <trkpt lat="44.45902" lon="1.02655">
        <ele>179.9</ele>
        <time>2014-11-08T14:15:40Z</time>
      </trkpt>
      <trkpt lat="44.45902" lon="1.02655">
        <ele>178.94</ele>
        <time>2014-11-08T14:15:54Z</time>
      </trkpt>
      <trkpt lat="44.45902" lon="1.02656">
        <ele>178.46</ele>
        <time>2014-11-08T14:16:09Z</time>
      </trkpt>
      <trkpt lat="44.45903" lon="1.02656">
        <ele>177.98</ele>
        <time>2014-11-08T14:16:21Z</time>
      </trkpt>
      <trkpt lat="44.45907" lon="1.0266">
        <ele>177.98</ele>
        <time>2014-11-08T14:16:25Z</time>
      </trkpt>
      <trkpt lat="44.45909" lon="1.02663">
        <ele>177.98</ele>
        <time>2014-11-08T14:16:26Z</time>
      </trkpt>
      <trkpt lat="44.45911" lon="1.02665">
        <ele>177.5</ele>
        <time>2014-11-08T14:16:27Z</time>
      </trkpt>
      <trkpt lat="44.45913" lon="1.02668">
        <ele>177.5</ele>
        <time>2014-11-08T14:16:28Z</time>
      </trkpt>
      <trkpt lat="44.45916" lon="1.02669">
        <ele>177.5</ele>
        <time>2014-11-08T14:16:29Z</time>
      </trkpt>
      <trkpt lat="44.45919" lon="1.0267">
        <ele>177.98</ele>
        <time>2014-11-08T14:16:30Z</time>
      </trkpt>
      <trkpt lat="44.45921" lon="1.02671">
        <ele>177.98</ele>
        <time>2014-11-08T14:16:31Z</time>
      </trkpt>
      <trkpt lat="44.45923" lon="1.02672">
        <ele>177.98</ele>
        <time>2014-11-08T14:16:32Z</time>
      </trkpt>
      <trkpt lat="44.45951" lon="1.02687">
        <ele>177.98</ele>
        <time>2014-11-08T14:16:43Z</time>
      </trkpt>
      <trkpt lat="44.45956" lon="1.02689">
        <ele>178.46</ele>
        <time>2014-11-08T14:16:46Z</time>
      </trkpt>
      <trkpt lat="44.45962" lon="1.02691">
        <ele>179.42</ele>
        <time>2014-11-08T14:16:52Z</time>
      </trkpt>
      <trkpt lat="44.4598" lon="1.02689">
        <ele>179.9</ele>
        <time>2014-11-08T14:17:06Z</time>
      </trkpt>
      <trkpt lat="44.45984" lon="1.02689">
        <ele>180.87</ele>
        <time>2014-11-08T14:17:09Z</time>
      </trkpt>
      <trkpt lat="44.46004" lon="1.02695">
        <ele>184.23</ele>
        <time>2014-11-08T14:17:23Z</time>
      </trkpt>
      <trkpt lat="44.46009" lon="1.02704">
        <ele>187.11</ele>
        <time>2014-11-08T14:17:29Z</time>
      </trkpt>
      <trkpt lat="44.46008" lon="1.02707">
        <ele>187.11</ele>
        <time>2014-11-08T14:17:31Z</time>
      </trkpt>
      <trkpt lat="44.45999" lon="1.02721">
        <ele>189.04</ele>
        <time>2014-11-08T14:17:42Z</time>
      </trkpt>
      <trkpt lat="44.4601" lon="1.02735">
        <ele>190.96</ele>
        <time>2014-11-08T14:17:53Z</time>
      </trkpt>
      <trkpt lat="44.46026" lon="1.02751">
        <ele>191.44</ele>
        <time>2014-11-08T14:18:05Z</time>
      </trkpt>
      <trkpt lat="44.46043" lon="1.02763">
        <ele>190.96</ele>
        <time>2014-11-08T14:18:19Z</time>
      </trkpt>
      <trkpt lat="44.46051" lon="1.0277">
        <ele>191.92</ele>
        <time>2014-11-08T14:18:25Z</time>
      </trkpt>
      <trkpt lat="44.46069" lon="1.02784">
        <ele>195.28</ele>
        <time>2014-11-08T14:18:40Z</time>
      </trkpt>
      <trkpt lat="44.46076" lon="1.02789">
        <ele>196.25</ele>
        <time>2014-11-08T14:18:45Z</time>
      </trkpt>
      <trkpt lat="44.46099" lon="1.02802">
        <ele>197.69</ele>
        <time>2014-11-08T14:18:59Z</time>
      </trkpt>
      <trkpt lat="44.46122" lon="1.02789">
        <ele>199.61</ele>
        <time>2014-11-08T14:19:11Z</time>
      </trkpt>
      <trkpt lat="44.46141" lon="1.02779">
        <ele>202.49</ele>
        <time>2014-11-08T14:19:24Z</time>
      </trkpt>
      <trkpt lat="44.46154" lon="1.02768">
        <ele>204.42</ele>
        <time>2014-11-08T14:19:34Z</time>
      </trkpt>
      <trkpt lat="44.46169" lon="1.02775">
        <ele>207.3</ele>
        <time>2014-11-08T14:19:46Z</time>
      </trkpt>
      <trkpt lat="44.46185" lon="1.02781">
        <ele>212.11</ele>
        <time>2014-11-08T14:20:01Z</time>
      </trkpt>
      <trkpt lat="44.46187" lon="1.02784">
        <ele>212.11</ele>
        <time>2014-11-08T14:20:03Z</time>
      </trkpt>
      <trkpt lat="44.4619" lon="1.02791">
        <ele>212.11</ele>
        <time>2014-11-08T14:20:08Z</time>
      </trkpt>
      <trkpt lat="44.46195" lon="1.02794">
        <ele>212.11</ele>
        <time>2014-11-08T14:20:12Z</time>
      </trkpt>
      <trkpt lat="44.46196" lon="1.028">
        <ele>212.11</ele>
        <time>2014-11-08T14:20:16Z</time>
      </trkpt>
      <trkpt lat="44.46201" lon="1.02807">
        <ele>212.11</ele>
        <time>2014-11-08T14:20:21Z</time>
      </trkpt>
      <trkpt lat="44.46205" lon="1.02813">
        <ele>212.11</ele>
        <time>2014-11-08T14:20:25Z</time>
      </trkpt>
      <trkpt lat="44.46224" lon="1.02842">
        <ele>213.55</ele>
        <time>2014-11-08T14:20:42Z</time>
      </trkpt>
      <trkpt lat="44.46226" lon="1.02844">
        <ele>213.55</ele>
        <time>2014-11-08T14:20:43Z</time>
      </trkpt>
      <trkpt lat="44.46246" lon="1.02885">
        <ele>215.95</ele>
        <time>2014-11-08T14:21:01Z</time>
      </trkpt>
      <trkpt lat="44.46267" lon="1.02931">
        <ele>221.24</ele>
        <time>2014-11-08T14:21:21Z</time>
      </trkpt>
      <trkpt lat="44.46285" lon="1.02978">
        <ele>224.61</ele>
        <time>2014-11-08T14:21:37Z</time>
      </trkpt>
      <trkpt lat="44.46308" lon="1.03023">
        <ele>224.61</ele>
        <time>2014-11-08T14:21:52Z</time>
      </trkpt>
      <trkpt lat="44.46339" lon="1.0307">
        <ele>224.61</ele>
        <time>2014-11-08T14:22:07Z</time>
      </trkpt>
      <trkpt lat="44.46364" lon="1.03105">
        <ele>224.61</ele>
        <time>2014-11-08T14:22:18Z</time>
      </trkpt>
      <trkpt lat="44.46401" lon="1.03157">
        <ele>223.64</ele>
        <time>2014-11-08T14:22:32Z</time>
      </trkpt>
      <trkpt lat="44.4642" lon="1.03193">
        <ele>223.64</ele>
        <time>2014-11-08T14:22:42Z</time>
      </trkpt>
      <trkpt lat="44.46442" lon="1.03223">
        <ele>222.68</ele>
        <time>2014-11-08T14:22:54Z</time>
      </trkpt>
      <trkpt lat="44.46443" lon="1.03222">
        <ele>222.68</ele>
        <time>2014-11-08T14:22:55Z</time>
      </trkpt>
      <trkpt lat="44.46445" lon="1.03221">
        <ele>222.68</ele>
        <time>2014-11-08T14:22:56Z</time>
      </trkpt>
      <trkpt lat="44.46446" lon="1.0322">
        <ele>222.68</ele>
        <time>2014-11-08T14:22:57Z</time>
      </trkpt>
      <trkpt lat="44.46446" lon="1.03219">
        <ele>222.68</ele>
        <time>2014-11-08T14:22:58Z</time>
      </trkpt>
      <trkpt lat="44.46447" lon="1.03218">
        <ele>222.68</ele>
        <time>2014-11-08T14:22:59Z</time>
      </trkpt>
      <trkpt lat="44.46448" lon="1.03217">
        <ele>222.68</ele>
        <time>2014-11-08T14:23:00Z</time>
      </trkpt>
      <trkpt lat="44.46476" lon="1.03199">
        <ele>221.72</ele>
        <time>2014-11-08T14:23:14Z</time>
      </trkpt>
      <trkpt lat="44.46488" lon="1.03189">
        <ele>221.24</ele>
        <time>2014-11-08T14:23:18Z</time>
      </trkpt>
      <trkpt lat="44.46491" lon="1.03185">
        <ele>221.24</ele>
        <time>2014-11-08T14:23:19Z</time>
      </trkpt>
      <trkpt lat="44.46493" lon="1.03181">
        <ele>221.24</ele>
        <time>2014-11-08T14:23:20Z</time>
      </trkpt>
      <trkpt lat="44.46494" lon="1.03176">
        <ele>221.24</ele>
        <time>2014-11-08T14:23:21Z</time>
      </trkpt>
      <trkpt lat="44.46495" lon="1.03171">
        <ele>221.24</ele>
        <time>2014-11-08T14:23:22Z</time>
      </trkpt>
      <trkpt lat="44.46496" lon="1.03165">
        <ele>221.24</ele>
        <time>2014-11-08T14:23:23Z</time>
      </trkpt>
      <trkpt lat="44.465" lon="1.03087">
        <ele>221.24</ele>
        <time>2014-11-08T14:23:36Z</time>
      </trkpt>
      <trkpt lat="44.46508" lon="1.03038">
        <ele>220.76</ele>
        <time>2014-11-08T14:23:42Z</time>
      </trkpt>
      <trkpt lat="44.46509" lon="1.03023">
        <ele>220.76</ele>
        <time>2014-11-08T14:23:44Z</time>
      </trkpt>
      <trkpt lat="44.46509" lon="1.03016">
        <ele>220.76</ele>
        <time>2014-11-08T14:23:45Z</time>
      </trkpt>
      <trkpt lat="44.46521" lon="1.0297">
        <ele>219.8</ele>
        <time>2014-11-08T14:23:53Z</time>
      </trkpt>
      <trkpt lat="44.46562" lon="1.02891">
        <ele>214.03</ele>
        <time>2014-11-08T14:24:06Z</time>
      </trkpt>
      <trkpt lat="44.46595" lon="1.02824">
        <ele>210.67</ele>
        <time>2014-11-08T14:24:15Z</time>
      </trkpt>
      <trkpt lat="44.46618" lon="1.0279">
        <ele>208.74</ele>
        <time>2014-11-08T14:24:20Z</time>
      </trkpt>
      <trkpt lat="44.46668" lon="1.02703">
        <ele>203.94</ele>
        <time>2014-11-08T14:24:31Z</time>
      </trkpt>
      <trkpt lat="44.46684" lon="1.02677">
        <ele>202.01</ele>
        <time>2014-11-08T14:24:37Z</time>
      </trkpt>
      <trkpt lat="44.46695" lon="1.0265">
        <ele>200.57</ele>
        <time>2014-11-08T14:24:45Z</time>
      </trkpt>
      <trkpt lat="44.46722" lon="1.02608">
        <ele>200.57</ele>
        <time>2014-11-08T14:24:56Z</time>
      </trkpt>
      <trkpt lat="44.46722" lon="1.02612">
        <ele>201.53</ele>
        <time>2014-11-08T14:25:01Z</time>
      </trkpt>
      <trkpt lat="44.46723" lon="1.02614">
        <ele>195.77</ele>
        <time>2014-11-08T14:25:17Z</time>
      </trkpt>
      <trkpt lat="44.46725" lon="1.02616">
        <ele>194.32</ele>
        <time>2014-11-08T14:25:43Z</time>
      </trkpt>
      <trkpt lat="44.46724" lon="1.02614">
        <ele>194.32</ele>
        <time>2014-11-08T14:25:59Z</time>
      </trkpt>
      <trkpt lat="44.46722" lon="1.02604">
        <ele>193.84</ele>
        <time>2014-11-08T14:26:03Z</time>
      </trkpt>
      <trkpt lat="44.46728" lon="1.02574">
        <ele>193.36</ele>
        <time>2014-11-08T14:26:13Z</time>
      </trkpt>
      <trkpt lat="44.46727" lon="1.02564">
        <ele>192.88</ele>
        <time>2014-11-08T14:26:18Z</time>
      </trkpt>
      <trkpt lat="44.4672" lon="1.02557">
        <ele>193.36</ele>
        <time>2014-11-08T14:26:26Z</time>
      </trkpt>
      <trkpt lat="44.46699" lon="1.02553">
        <ele>192.88</ele>
        <time>2014-11-08T14:26:37Z</time>
      </trkpt>
      <trkpt lat="44.46695" lon="1.02552">
        <ele>192.88</ele>
        <time>2014-11-08T14:26:38Z</time>
      </trkpt>
      <trkpt lat="44.46668" lon="1.02539">
        <ele>188.08</ele>
        <time>2014-11-08T14:26:45Z</time>
      </trkpt>
      <trkpt lat="44.4666" lon="1.02536">
        <ele>186.63</ele>
        <time>2014-11-08T14:26:47Z</time>
      </trkpt>
      <trkpt lat="44.46643" lon="1.02527">
        <ele>182.31</ele>
        <time>2014-11-08T14:26:51Z</time>
      </trkpt>
      <trkpt lat="44.46625" lon="1.02506">
        <ele>177.5</ele>
        <time>2014-11-08T14:26:57Z</time>
      </trkpt>
      <trkpt lat="44.46632" lon="1.02486">
        <ele>173.66</ele>
        <time>2014-11-08T14:27:03Z</time>
      </trkpt>
      <trkpt lat="44.46638" lon="1.02457">
        <ele>170.29</ele>
        <time>2014-11-08T14:27:07Z</time>
      </trkpt>
      <trkpt lat="44.46644" lon="1.02421">
        <ele>166.45</ele>
        <time>2014-11-08T14:27:12Z</time>
      </trkpt>
      <trkpt lat="44.46652" lon="1.0239">
        <ele>162.12</ele>
        <time>2014-11-08T14:27:17Z</time>
      </trkpt>
      <trkpt lat="44.46668" lon="1.02349">
        <ele>155.87</ele>
        <time>2014-11-08T14:27:24Z</time>
      </trkpt>
      <trkpt lat="44.46677" lon="1.02327">
        <ele>153.95</ele>
        <time>2014-11-08T14:27:27Z</time>
      </trkpt>
      <trkpt lat="44.4669" lon="1.0229">
        <ele>151.54</ele>
        <time>2014-11-08T14:27:32Z</time>
      </trkpt>
      <trkpt lat="44.46697" lon="1.02277">
        <ele>150.58</ele>
        <time>2014-11-08T14:27:34Z</time>
      </trkpt>
      <trkpt lat="44.46707" lon="1.02265">
        <ele>149.62</ele>
        <time>2014-11-08T14:27:36Z</time>
      </trkpt>
      <trkpt lat="44.46721" lon="1.02236">
        <ele>148.66</ele>
        <time>2014-11-08T14:27:40Z</time>
      </trkpt>
      <trkpt lat="44.46745" lon="1.02128">
        <ele>144.34</ele>
        <time>2014-11-08T14:27:52Z</time>
      </trkpt>
      <trkpt lat="44.46748" lon="1.02089">
        <ele>141.45</ele>
        <time>2014-11-08T14:27:57Z</time>
      </trkpt>
      <trkpt lat="44.46749" lon="1.02026">
        <ele>137.13</ele>
        <time>2014-11-08T14:28:06Z</time>
      </trkpt>
      <trkpt lat="44.46752" lon="1.02006">
        <ele>135.68</ele>
        <time>2014-11-08T14:28:09Z</time>
      </trkpt>
      <trkpt lat="44.46756" lon="1.01976">
        <ele>133.76</ele>
        <time>2014-11-08T14:28:13Z</time>
      </trkpt>
      <trkpt lat="44.4676" lon="1.01952">
        <ele>131.36</ele>
        <time>2014-11-08T14:28:17Z</time>
      </trkpt>
      <trkpt lat="44.46764" lon="1.01932">
        <ele>129.92</ele>
        <time>2014-11-08T14:28:20Z</time>
      </trkpt>
      <trkpt lat="44.46786" lon="1.01868">
        <ele>125.11</ele>
        <time>2014-11-08T14:28:31Z</time>
      </trkpt>
      <trkpt lat="44.4679" lon="1.01858">
        <ele>124.63</ele>
        <time>2014-11-08T14:28:33Z</time>
      </trkpt>
      <trkpt lat="44.4681" lon="1.01809">
        <ele>123.19</ele>
        <time>2014-11-08T14:28:41Z</time>
      </trkpt>
      <trkpt lat="44.46815" lon="1.01795">
        <ele>122.22</ele>
        <time>2014-11-08T14:28:44Z</time>
      </trkpt>
      <trkpt lat="44.46822" lon="1.01779">
        <ele>119.82</ele>
        <time>2014-11-08T14:28:50Z</time>
      </trkpt>
      <trkpt lat="44.46836" lon="1.01765">
        <ele>116.46</ele>
        <time>2014-11-08T14:28:59Z</time>
      </trkpt>
      <trkpt lat="44.46837" lon="1.01762">
        <ele>118.86</ele>
        <time>2014-11-08T14:29:18Z</time>
      </trkpt>
      <trkpt lat="44.46847" lon="1.01748">
        <ele>118.86</ele>
        <time>2014-11-08T14:29:32Z</time>
      </trkpt>
      <trkpt lat="44.46868" lon="1.0171">
        <ele>119.34</ele>
        <time>2014-11-08T14:29:41Z</time>
      </trkpt>
      <trkpt lat="44.46888" lon="1.01692">
        <ele>119.34</ele>
        <time>2014-11-08T14:29:46Z</time>
      </trkpt>
      <trkpt lat="44.46914" lon="1.01663">
        <ele>119.82</ele>
        <time>2014-11-08T14:29:52Z</time>
      </trkpt>
      <trkpt lat="44.46923" lon="1.01653">
        <ele>119.82</ele>
        <time>2014-11-08T14:29:54Z</time>
      </trkpt>
      <trkpt lat="44.46951" lon="1.01639">
        <ele>119.82</ele>
        <time>2014-11-08T14:29:59Z</time>
      </trkpt>
      <trkpt lat="44.47048" lon="1.01617">
        <ele>116.94</ele>
        <time>2014-11-08T14:30:14Z</time>
      </trkpt>
      <trkpt lat="44.47078" lon="1.01607">
        <ele>115.98</ele>
        <time>2014-11-08T14:30:19Z</time>
      </trkpt>
      <trkpt lat="44.47098" lon="1.01597">
        <ele>113.57</ele>
        <time>2014-11-08T14:30:26Z</time>
      </trkpt>
      <trkpt lat="44.471" lon="1.01542">
        <ele>111.17</ele>
        <time>2014-11-08T14:30:37Z</time>
      </trkpt>
      <trkpt lat="44.47095" lon="1.01475">
        <ele>111.65</ele>
        <time>2014-11-08T14:30:51Z</time>
      </trkpt>
      <trkpt lat="44.47093" lon="1.01427">
        <ele>111.65</ele>
        <time>2014-11-08T14:31:04Z</time>
      </trkpt>
      <trkpt lat="44.47091" lon="1.01371">
        <ele>113.57</ele>
        <time>2014-11-08T14:31:20Z</time>
      </trkpt>
      <trkpt lat="44.4709" lon="1.01326">
        <ele>116.94</ele>
        <time>2014-11-08T14:31:33Z</time>
      </trkpt>
      <trkpt lat="44.47094" lon="1.01273">
        <ele>120.78</ele>
        <time>2014-11-08T14:31:49Z</time>
      </trkpt>
      <trkpt lat="44.47093" lon="1.01252">
        <ele>122.71</ele>
        <time>2014-11-08T14:31:59Z</time>
      </trkpt>
      <trkpt lat="44.47092" lon="1.01248">
        <ele>123.19</ele>
        <time>2014-11-08T14:32:01Z</time>
      </trkpt>
      <trkpt lat="44.47092" lon="1.01246">
        <ele>123.19</ele>
        <time>2014-11-08T14:32:02Z</time>
      </trkpt>
      <trkpt lat="44.47092" lon="1.01244">
        <ele>123.19</ele>
        <time>2014-11-08T14:32:03Z</time>
      </trkpt>
      <trkpt lat="44.47092" lon="1.01242">
        <ele>123.67</ele>
        <time>2014-11-08T14:32:04Z</time>
      </trkpt>
      <trkpt lat="44.47092" lon="1.0124">
        <ele>123.67</ele>
        <time>2014-11-08T14:32:05Z</time>
      </trkpt>
      <trkpt lat="44.47093" lon="1.01238">
        <ele>123.67</ele>
        <time>2014-11-08T14:32:06Z</time>
      </trkpt>
      <trkpt lat="44.47093" lon="1.01236">
        <ele>124.15</ele>
        <time>2014-11-08T14:32:07Z</time>
      </trkpt>
      <trkpt lat="44.47093" lon="1.01234">
        <ele>124.15</ele>
        <time>2014-11-08T14:32:08Z</time>
      </trkpt>
      <trkpt lat="44.47093" lon="1.01232">
        <ele>124.15</ele>
        <time>2014-11-08T14:32:09Z</time>
      </trkpt>
      <trkpt lat="44.47094" lon="1.0123">
        <ele>124.15</ele>
        <time>2014-11-08T14:32:10Z</time>
      </trkpt>
      <trkpt lat="44.47094" lon="1.01228">
        <ele>124.63</ele>
        <time>2014-11-08T14:32:11Z</time>
      </trkpt>
      <trkpt lat="44.47095" lon="1.01224">
        <ele>124.15</ele>
        <time>2014-11-08T14:32:26Z</time>
      </trkpt>
      <trkpt lat="44.47095" lon="1.01224">
        <ele>123.19</ele>
        <time>2014-11-08T14:32:48Z</time>
      </trkpt>
      <trkpt lat="44.47095" lon="1.01223">
        <ele>122.22</ele>
        <time>2014-11-08T14:33:10Z</time>
      </trkpt>
      <trkpt lat="44.47095" lon="1.01223">
        <ele>122.71</ele>
        <time>2014-11-08T14:33:40Z</time>
      </trkpt>
      <trkpt lat="44.47096" lon="1.01223">
        <ele>122.71</ele>
        <time>2014-11-08T14:33:48Z</time>
      </trkpt>
      <trkpt lat="44.47103" lon="1.01226">
        <ele>122.71</ele>
        <time>2014-11-08T14:33:52Z</time>
      </trkpt>
      <trkpt lat="44.4713" lon="1.01237">
        <ele>122.71</ele>
        <time>2014-11-08T14:33:59Z</time>
      </trkpt>
      <trkpt lat="44.47167" lon="1.01249">
        <ele>120.78</ele>
        <time>2014-11-08T14:34:05Z</time>
      </trkpt>
      <trkpt lat="44.4719" lon="1.01252">
        <ele>119.34</ele>
        <time>2014-11-08T14:34:08Z</time>
      </trkpt>
      <trkpt lat="44.47218" lon="1.01259">
        <ele>116.46</ele>
        <time>2014-11-08T14:34:13Z</time>
      </trkpt>
      <trkpt lat="44.47254" lon="1.01282">
        <ele>107.32</ele>
        <time>2014-11-08T14:34:23Z</time>
      </trkpt>
      <trkpt lat="44.4726" lon="1.01284">
        <ele>105.88</ele>
        <time>2014-11-08T14:34:25Z</time>
      </trkpt>
      <trkpt lat="44.47294" lon="1.01311">
        <ele>102.52</ele>
        <time>2014-11-08T14:34:34Z</time>
      </trkpt>
      <trkpt lat="44.47308" lon="1.01325">
        <ele>103</ele>
        <time>2014-11-08T14:34:39Z</time>
      </trkpt>
      <trkpt lat="44.47318" lon="1.01333">
        <ele>103.48</ele>
        <time>2014-11-08T14:34:44Z</time>
      </trkpt>
      <trkpt lat="44.47332" lon="1.01361">
        <ele>106.36</ele>
        <time>2014-11-08T14:34:59Z</time>
      </trkpt>
      <trkpt lat="44.47335" lon="1.01374">
        <ele>106.84</ele>
        <time>2014-11-08T14:35:05Z</time>
      </trkpt>
      <trkpt lat="44.47335" lon="1.01378">
        <ele>107.32</ele>
        <time>2014-11-08T14:35:07Z</time>
      </trkpt>
      <trkpt lat="44.47342" lon="1.01402">
        <ele>111.17</ele>
        <time>2014-11-08T14:35:20Z</time>
      </trkpt>
      <trkpt lat="44.47343" lon="1.01405">
        <ele>111.17</ele>
        <time>2014-11-08T14:35:22Z</time>
      </trkpt>
      <trkpt lat="44.47353" lon="1.01432">
        <ele>115.98</ele>
        <time>2014-11-08T14:35:40Z</time>
      </trkpt>
      <trkpt lat="44.47356" lon="1.0145">
        <ele>119.34</ele>
        <time>2014-11-08T14:35:52Z</time>
      </trkpt>
      <trkpt lat="44.47358" lon="1.01456">
        <ele>119.82</ele>
        <time>2014-11-08T14:36:04Z</time>
      </trkpt>
      <trkpt lat="44.47361" lon="1.01466">
        <ele>122.71</ele>
        <time>2014-11-08T14:36:15Z</time>
      </trkpt>
      <trkpt lat="44.47363" lon="1.0147">
        <ele>124.15</ele>
        <time>2014-11-08T14:36:28Z</time>
      </trkpt>
      <trkpt lat="44.47371" lon="1.01479">
        <ele>126.07</ele>
        <time>2014-11-08T14:36:40Z</time>
      </trkpt>
      <trkpt lat="44.47395" lon="1.015">
        <ele>128.95</ele>
        <time>2014-11-08T14:36:55Z</time>
      </trkpt>
      <trkpt lat="44.47409" lon="1.01521">
        <ele>130.4</ele>
        <time>2014-11-08T14:37:09Z</time>
      </trkpt>
      <trkpt lat="44.47431" lon="1.01546">
        <ele>131.36</ele>
        <time>2014-11-08T14:37:28Z</time>
      </trkpt>
      <trkpt lat="44.47447" lon="1.01562">
        <ele>131.84</ele>
        <time>2014-11-08T14:37:42Z</time>
      </trkpt>
      <trkpt lat="44.47457" lon="1.01572">
        <ele>132.8</ele>
        <time>2014-11-08T14:37:52Z</time>
      </trkpt>
      <trkpt lat="44.4748" lon="1.01587">
        <ele>134.24</ele>
        <time>2014-11-08T14:38:09Z</time>
      </trkpt>
      <trkpt lat="44.475" lon="1.01609">
        <ele>135.2</ele>
        <time>2014-11-08T14:38:23Z</time>
      </trkpt>
      <trkpt lat="44.47524" lon="1.01635">
        <ele>136.16</ele>
        <time>2014-11-08T14:38:40Z</time>
      </trkpt>
      <trkpt lat="44.47537" lon="1.01648">
        <ele>137.13</ele>
        <time>2014-11-08T14:38:50Z</time>
      </trkpt>
      <trkpt lat="44.47544" lon="1.01643">
        <ele>137.13</ele>
        <time>2014-11-08T14:38:55Z</time>
      </trkpt>
      <trkpt lat="44.47553" lon="1.01604">
        <ele>138.09</ele>
        <time>2014-11-08T14:39:11Z</time>
      </trkpt>
      <trkpt lat="44.47561" lon="1.01569">
        <ele>143.85</ele>
        <time>2014-11-08T14:39:27Z</time>
      </trkpt>
      <trkpt lat="44.47562" lon="1.01539">
        <ele>146.74</ele>
        <time>2014-11-08T14:39:40Z</time>
      </trkpt>
      <trkpt lat="44.47564" lon="1.01522">
        <ele>147.7</ele>
        <time>2014-11-08T14:39:48Z</time>
      </trkpt>
      <trkpt lat="44.47564" lon="1.01521">
        <ele>147.7</ele>
        <time>2014-11-08T14:39:49Z</time>
      </trkpt>
      <trkpt lat="44.47564" lon="1.01519">
        <ele>147.7</ele>
        <time>2014-11-08T14:39:50Z</time>
      </trkpt>
      <trkpt lat="44.47564" lon="1.01516">
        <ele>147.22</ele>
        <time>2014-11-08T14:40:01Z</time>
      </trkpt>
      <trkpt lat="44.47562" lon="1.01516">
        <ele>146.26</ele>
        <time>2014-11-08T14:40:28Z</time>
      </trkpt>
      <trkpt lat="44.47562" lon="1.01517">
        <ele>144.82</ele>
        <time>2014-11-08T14:41:04Z</time>
      </trkpt>
      <trkpt lat="44.47563" lon="1.01517">
        <ele>144.34</ele>
        <time>2014-11-08T14:41:33Z</time>
      </trkpt>
      <trkpt lat="44.47562" lon="1.01517">
        <ele>144.82</ele>
        <time>2014-11-08T14:41:58Z</time>
      </trkpt>
      <trkpt lat="44.47562" lon="1.01517">
        <ele>144.82</ele>
        <time>2014-11-08T14:42:36Z</time>
      </trkpt>
      <trkpt lat="44.47563" lon="1.01517">
        <ele>143.85</ele>
        <time>2014-11-08T14:43:14Z</time>
      </trkpt>
      <trkpt lat="44.47563" lon="1.01518">
        <ele>142.89</ele>
        <time>2014-11-08T14:43:45Z</time>
      </trkpt>
      <trkpt lat="44.47563" lon="1.01519">
        <ele>141.93</ele>
        <time>2014-11-08T14:44:15Z</time>
      </trkpt>
      <trkpt lat="44.47563" lon="1.01519">
        <ele>142.41</ele>
        <time>2014-11-08T14:44:35Z</time>
      </trkpt>
      <trkpt lat="44.47564" lon="1.01517">
        <ele>142.89</ele>
        <time>2014-11-08T14:45:07Z</time>
      </trkpt>
      <trkpt lat="44.47563" lon="1.01517">
        <ele>142.89</ele>
        <time>2014-11-08T14:45:43Z</time>
      </trkpt>
      <trkpt lat="44.47563" lon="1.01517">
        <ele>142.89</ele>
        <time>2014-11-08T14:46:18Z</time>
      </trkpt>
      <trkpt lat="44.47563" lon="1.01517">
        <ele>142.41</ele>
        <time>2014-11-08T14:46:45Z</time>
      </trkpt>
      <trkpt lat="44.47563" lon="1.01517">
        <ele>142.89</ele>
        <time>2014-11-08T14:47:13Z</time>
      </trkpt>
      <trkpt lat="44.47562" lon="1.01519">
        <ele>142.89</ele>
        <time>2014-11-08T14:47:48Z</time>
      </trkpt>
      <trkpt lat="44.47562" lon="1.01518">
        <ele>144.34</ele>
        <time>2014-11-08T14:48:22Z</time>
      </trkpt>
      <trkpt lat="44.47562" lon="1.01518">
        <ele>145.3</ele>
        <time>2014-11-08T14:48:44Z</time>
      </trkpt>
      <trkpt lat="44.47562" lon="1.01519">
        <ele>146.74</ele>
        <time>2014-11-08T14:49:11Z</time>
      </trkpt>
      <trkpt lat="44.47562" lon="1.01518">
        <ele>147.22</ele>
        <time>2014-11-08T14:49:37Z</time>
      </trkpt>
      <trkpt lat="44.47562" lon="1.01519">
        <ele>147.22</ele>
        <time>2014-11-08T14:50:08Z</time>
      </trkpt>
      <trkpt lat="44.47564" lon="1.01518">
        <ele>147.22</ele>
        <time>2014-11-08T14:50:31Z</time>
      </trkpt>
      <trkpt lat="44.47564" lon="1.01518">
        <ele>146.26</ele>
        <time>2014-11-08T14:50:53Z</time>
      </trkpt>
      <trkpt lat="44.47563" lon="1.01517">
        <ele>145.78</ele>
        <time>2014-11-08T14:51:29Z</time>
      </trkpt>
      <trkpt lat="44.47564" lon="1.01517">
        <ele>146.74</ele>
        <time>2014-11-08T14:51:50Z</time>
      </trkpt>
      <trkpt lat="44.47567" lon="1.01512">
        <ele>146.74</ele>
        <time>2014-11-08T14:52:07Z</time>
      </trkpt>
      <trkpt lat="44.47577" lon="1.01477">
        <ele>147.22</ele>
        <time>2014-11-08T14:52:20Z</time>
      </trkpt>
      <trkpt lat="44.47589" lon="1.01444">
        <ele>146.26</ele>
        <time>2014-11-08T14:52:33Z</time>
      </trkpt>
      <trkpt lat="44.47614" lon="1.01385">
        <ele>143.85</ele>
        <time>2014-11-08T14:52:49Z</time>
      </trkpt>
      <trkpt lat="44.47626" lon="1.01341">
        <ele>141.45</ele>
        <time>2014-11-08T14:52:57Z</time>
      </trkpt>
      <trkpt lat="44.47641" lon="1.01319">
        <ele>139.05</ele>
        <time>2014-11-08T14:53:01Z</time>
      </trkpt>
      <trkpt lat="44.4766" lon="1.01299">
        <ele>136.16</ele>
        <time>2014-11-08T14:53:05Z</time>
      </trkpt>
      <trkpt lat="44.4769" lon="1.01243">
        <ele>130.4</ele>
        <time>2014-11-08T14:53:12Z</time>
      </trkpt>
      <trkpt lat="44.47702" lon="1.01231">
        <ele>128.47</ele>
        <time>2014-11-08T14:53:16Z</time>
      </trkpt>
      <trkpt lat="44.47719" lon="1.01198">
        <ele>126.07</ele>
        <time>2014-11-08T14:53:26Z</time>
      </trkpt>
      <trkpt lat="44.47732" lon="1.01178">
        <ele>124.15</ele>
        <time>2014-11-08T14:53:34Z</time>
      </trkpt>
      <trkpt lat="44.47749" lon="1.01153">
        <ele>121.26</ele>
        <time>2014-11-08T14:53:43Z</time>
      </trkpt>
      <trkpt lat="44.4775" lon="1.01152">
        <ele>121.26</ele>
        <time>2014-11-08T14:53:44Z</time>
      </trkpt>
      <trkpt lat="44.47756" lon="1.01143">
        <ele>120.3</ele>
        <time>2014-11-08T14:53:48Z</time>
      </trkpt>
      <trkpt lat="44.4776" lon="1.0114">
        <ele>120.3</ele>
        <time>2014-11-08T14:53:50Z</time>
      </trkpt>
      <trkpt lat="44.47763" lon="1.01134">
        <ele>120.3</ele>
        <time>2014-11-08T14:53:52Z</time>
      </trkpt>
      <trkpt lat="44.47772" lon="1.01115">
        <ele>118.38</ele>
        <time>2014-11-08T14:54:00Z</time>
      </trkpt>
      <trkpt lat="44.47774" lon="1.0111">
        <ele>116.94</ele>
        <time>2014-11-08T14:54:02Z</time>
      </trkpt>
      <trkpt lat="44.47786" lon="1.01094">
        <ele>114.53</ele>
        <time>2014-11-08T14:54:09Z</time>
      </trkpt>
      <trkpt lat="44.478" lon="1.01065">
        <ele>112.61</ele>
        <time>2014-11-08T14:54:14Z</time>
      </trkpt>
      <trkpt lat="44.47815" lon="1.01043">
        <ele>110.69</ele>
        <time>2014-11-08T14:54:20Z</time>
      </trkpt>
      <trkpt lat="44.47831" lon="1.01013">
        <ele>110.69</ele>
        <time>2014-11-08T14:54:29Z</time>
      </trkpt>
      <trkpt lat="44.47847" lon="1.00982">
        <ele>108.77</ele>
        <time>2014-11-08T14:54:38Z</time>
      </trkpt>
      <trkpt lat="44.47851" lon="1.00975">
        <ele>108.29</ele>
        <time>2014-11-08T14:54:40Z</time>
      </trkpt>
      <trkpt lat="44.47858" lon="1.0096">
        <ele>106.84</ele>
        <time>2014-11-08T14:54:44Z</time>
      </trkpt>
      <trkpt lat="44.47871" lon="1.00928">
        <ele>103.48</ele>
        <time>2014-11-08T14:54:53Z</time>
      </trkpt>
      <trkpt lat="44.47897" lon="1.00878">
        <ele>99.15</ele>
        <time>2014-11-08T14:55:04Z</time>
      </trkpt>
      <trkpt lat="44.47902" lon="1.0087">
        <ele>98.67</ele>
        <time>2014-11-08T14:55:06Z</time>
      </trkpt>
      <trkpt lat="44.47912" lon="1.00853">
        <ele>97.71</ele>
        <time>2014-11-08T14:55:12Z</time>
      </trkpt>
      <trkpt lat="44.47922" lon="1.00829">
        <ele>92.9</ele>
        <time>2014-11-08T14:55:23Z</time>
      </trkpt>
      <trkpt lat="44.47921" lon="1.00828">
        <ele>91.94</ele>
        <time>2014-11-08T14:55:36Z</time>
      </trkpt>
      <trkpt lat="44.47928" lon="1.00805">
        <ele>86.66</ele>
        <time>2014-11-08T14:55:46Z</time>
      </trkpt>
      <trkpt lat="44.47933" lon="1.008">
        <ele>86.18</ele>
        <time>2014-11-08T14:55:48Z</time>
      </trkpt>
      <trkpt lat="44.47942" lon="1.00793">
        <ele>84.73</ele>
        <time>2014-11-08T14:55:58Z</time>
      </trkpt>
      <trkpt lat="44.47943" lon="1.00791">
        <ele>84.73</ele>
        <time>2014-11-08T14:56:16Z</time>
      </trkpt>
      <trkpt lat="44.47943" lon="1.00791">
        <ele>84.25</ele>
        <time>2014-11-08T14:56:35Z</time>
      </trkpt>
      <trkpt lat="44.47941" lon="1.00793">
        <ele>83.77</ele>
        <time>2014-11-08T14:56:42Z</time>
      </trkpt>
      <trkpt lat="44.47952" lon="1.00778">
        <ele>80.89</ele>
        <time>2014-11-08T14:56:52Z</time>
      </trkpt>
      <trkpt lat="44.47954" lon="1.00774">
        <ele>79.45</ele>
        <time>2014-11-08T14:56:59Z</time>
      </trkpt>
      <trkpt lat="44.47956" lon="1.00776">
        <ele>78.48</ele>
        <time>2014-11-08T14:57:02Z</time>
      </trkpt>
      <trkpt lat="44.47958" lon="1.00777">
        <ele>77.52</ele>
        <time>2014-11-08T14:57:05Z</time>
      </trkpt>
      <trkpt lat="44.47962" lon="1.00768">
        <ele>75.6</ele>
        <time>2014-11-08T14:57:14Z</time>
      </trkpt>
      <trkpt lat="44.47963" lon="1.00767">
        <ele>75.6</ele>
        <time>2014-11-08T14:57:36Z</time>
      </trkpt>
      <trkpt lat="44.47963" lon="1.00767">
        <ele>75.12</ele>
        <time>2014-11-08T14:58:02Z</time>
      </trkpt>
      <trkpt lat="44.47963" lon="1.00767">
        <ele>74.64</ele>
        <time>2014-11-08T14:58:30Z</time>
      </trkpt>
      <trkpt lat="44.47963" lon="1.00767">
        <ele>75.6</ele>
        <time>2014-11-08T14:58:57Z</time>
      </trkpt>
      <trkpt lat="44.47962" lon="1.00764">
        <ele>76.08</ele>
        <time>2014-11-08T14:59:12Z</time>
      </trkpt>
      <trkpt lat="44.47961" lon="1.00764">
        <ele>76.56</ele>
        <time>2014-11-08T14:59:23Z</time>
      </trkpt>
      <trkpt lat="44.47961" lon="1.00763">
        <ele>76.56</ele>
        <time>2014-11-08T14:59:51Z</time>
      </trkpt>
      <trkpt lat="44.47961" lon="1.00764">
        <ele>77.04</ele>
        <time>2014-11-08T15:00:13Z</time>
      </trkpt>
      <trkpt lat="44.47961" lon="1.00765">
        <ele>78</ele>
        <time>2014-11-08T15:00:33Z</time>
      </trkpt>
      <trkpt lat="44.47961" lon="1.00765">
        <ele>77.52</ele>
        <time>2014-11-08T15:00:45Z</time>
      </trkpt>
      <trkpt lat="44.4797" lon="1.00745">
        <ele>73.2</ele>
        <time>2014-11-08T15:00:56Z</time>
      </trkpt>
      <trkpt lat="44.47975" lon="1.00729">
        <ele>70.79</ele>
        <time>2014-11-08T15:00:59Z</time>
      </trkpt>
      <trkpt lat="44.47984" lon="1.00698">
        <ele>68.39</ele>
        <time>2014-11-08T15:01:04Z</time>
      </trkpt>
      <trkpt lat="44.47987" lon="1.00695">
        <ele>68.39</ele>
        <time>2014-11-08T15:01:05Z</time>
      </trkpt>
      <trkpt lat="44.4799" lon="1.00693">
        <ele>68.39</ele>
        <time>2014-11-08T15:01:06Z</time>
      </trkpt>
      <trkpt lat="44.47994" lon="1.00691">
        <ele>68.39</ele>
        <time>2014-11-08T15:01:07Z</time>
      </trkpt>
      <trkpt lat="44.48026" lon="1.00651">
        <ele>70.79</ele>
        <time>2014-11-08T15:01:19Z</time>
      </trkpt>
      <trkpt lat="44.48053" lon="1.00611">
        <ele>73.2</ele>
        <time>2014-11-08T15:01:30Z</time>
      </trkpt>
      <trkpt lat="44.48078" lon="1.0058">
        <ele>75.12</ele>
        <time>2014-11-08T15:01:41Z</time>
      </trkpt>
      <trkpt lat="44.48093" lon="1.00565">
        <ele>74.64</ele>
        <time>2014-11-08T15:01:46Z</time>
      </trkpt>
      <trkpt lat="44.48119" lon="1.00507">
        <ele>75.6</ele>
        <time>2014-11-08T15:01:59Z</time>
      </trkpt>
      <trkpt lat="44.48148" lon="1.0045">
        <ele>73.68</ele>
        <time>2014-11-08T15:02:12Z</time>
      </trkpt>
      <trkpt lat="44.48165" lon="1.00402">
        <ele>76.56</ele>
        <time>2014-11-08T15:02:22Z</time>
      </trkpt>
      <trkpt lat="44.48195" lon="1.00348">
        <ele>80.89</ele>
        <time>2014-11-08T15:02:33Z</time>
      </trkpt>
      <trkpt lat="44.48207" lon="1.00324">
        <ele>82.81</ele>
        <time>2014-11-08T15:02:38Z</time>
      </trkpt>
      <trkpt lat="44.4822" lon="1.00291">
        <ele>84.25</ele>
        <time>2014-11-08T15:02:43Z</time>
      </trkpt>
      <trkpt lat="44.48244" lon="1.00237">
        <ele>83.29</ele>
        <time>2014-11-08T15:02:52Z</time>
      </trkpt>
      <trkpt lat="44.48279" lon="1.00163">
        <ele>81.85</ele>
        <time>2014-11-08T15:03:05Z</time>
      </trkpt>
      <trkpt lat="44.48301" lon="1.00117">
        <ele>86.18</ele>
        <time>2014-11-08T15:03:17Z</time>
      </trkpt>
      <trkpt lat="44.48333" lon="1.00056">
        <ele>89.06</ele>
        <time>2014-11-08T15:03:30Z</time>
      </trkpt>
      <trkpt lat="44.4835" lon="1.00007">
        <ele>87.14</ele>
        <time>2014-11-08T15:03:40Z</time>
      </trkpt>
      <trkpt lat="44.48382" lon="0.99954">
        <ele>80.89</ele>
        <time>2014-11-08T15:03:52Z</time>
      </trkpt>
      <trkpt lat="44.48412" lon="0.99896">
        <ele>76.56</ele>
        <time>2014-11-08T15:04:05Z</time>
      </trkpt>
      <trkpt lat="44.48439" lon="0.99847">
        <ele>74.16</ele>
        <time>2014-11-08T15:04:16Z</time>
      </trkpt>
      <trkpt lat="44.48472" lon="0.99783">
        <ele>70.31</ele>
        <time>2014-11-08T15:04:30Z</time>
      </trkpt>
      <trkpt lat="44.48481" lon="0.99757">
        <ele>71.27</ele>
        <time>2014-11-08T15:04:36Z</time>
      </trkpt>
      <trkpt lat="44.48478" lon="0.99743">
        <ele>72.24</ele>
        <time>2014-11-08T15:04:41Z</time>
      </trkpt>
      <trkpt lat="44.48476" lon="0.99739">
        <ele>72.72</ele>
        <time>2014-11-08T15:04:43Z</time>
      </trkpt>
      <trkpt lat="44.48467" lon="0.99727">
        <ele>73.68</ele>
        <time>2014-11-08T15:04:50Z</time>
      </trkpt>
      <trkpt lat="44.48465" lon="0.99716">
        <ele>74.16</ele>
        <time>2014-11-08T15:04:55Z</time>
      </trkpt>
      <trkpt lat="44.48467" lon="0.99713">
        <ele>74.16</ele>
        <time>2014-11-08T15:04:56Z</time>
      </trkpt>
      <trkpt lat="44.48488" lon="0.99668">
        <ele>73.2</ele>
        <time>2014-11-08T15:05:08Z</time>
      </trkpt>
      <trkpt lat="44.48514" lon="0.9963">
        <ele>72.24</ele>
        <time>2014-11-08T15:05:19Z</time>
      </trkpt>
      <trkpt lat="44.48547" lon="0.99579">
        <ele>71.76</ele>
        <time>2014-11-08T15:05:34Z</time>
      </trkpt>
      <trkpt lat="44.48585" lon="0.99527">
        <ele>71.76</ele>
        <time>2014-11-08T15:05:49Z</time>
      </trkpt>
      <trkpt lat="44.48607" lon="0.9947">
        <ele>73.2</ele>
        <time>2014-11-08T15:06:03Z</time>
      </trkpt>
      <trkpt lat="44.48599" lon="0.99447">
        <ele>72.72</ele>
        <time>2014-11-08T15:06:10Z</time>
      </trkpt>
      <trkpt lat="44.486" lon="0.99441">
        <ele>72.72</ele>
        <time>2014-11-08T15:06:21Z</time>
      </trkpt>
      <trkpt lat="44.486" lon="0.99441">
        <ele>71.76</ele>
        <time>2014-11-08T15:06:31Z</time>
      </trkpt>
      <trkpt lat="44.48599" lon="0.99441">
        <ele>70.79</ele>
        <time>2014-11-08T15:07:04Z</time>
      </trkpt>
      <trkpt lat="44.486" lon="0.99441">
        <ele>70.79</ele>
        <time>2014-11-08T15:07:39Z</time>
      </trkpt>
      <trkpt lat="44.486" lon="0.9944">
        <ele>70.31</ele>
        <time>2014-11-08T15:08:03Z</time>
      </trkpt>
      <trkpt lat="44.486" lon="0.99439">
        <ele>70.79</ele>
        <time>2014-11-08T15:08:18Z</time>
      </trkpt>
      <trkpt lat="44.486" lon="0.9944">
        <ele>71.27</ele>
        <time>2014-11-08T15:08:36Z</time>
      </trkpt>
      <trkpt lat="44.486" lon="0.9944">
        <ele>70.79</ele>
        <time>2014-11-08T15:09:02Z</time>
      </trkpt>
      <trkpt lat="44.48599" lon="0.9944">
        <ele>71.27</ele>
        <time>2014-11-08T15:09:33Z</time>
      </trkpt>
      <trkpt lat="44.48599" lon="0.99439">
        <ele>71.27</ele>
        <time>2014-11-08T15:09:37Z</time>
      </trkpt>
      <trkpt lat="44.48607" lon="0.9943">
        <ele>72.72</ele>
        <time>2014-11-08T15:09:43Z</time>
      </trkpt>
      <trkpt lat="44.48609" lon="0.99428">
        <ele>72.72</ele>
        <time>2014-11-08T15:09:44Z</time>
      </trkpt>
      <trkpt lat="44.48637" lon="0.99397">
        <ele>73.2</ele>
        <time>2014-11-08T15:09:56Z</time>
      </trkpt>
      <trkpt lat="44.48652" lon="0.99379">
        <ele>72.72</ele>
        <time>2014-11-08T15:10:01Z</time>
      </trkpt>
      <trkpt lat="44.48665" lon="0.99364">
        <ele>72.72</ele>
        <time>2014-11-08T15:10:05Z</time>
      </trkpt>
      <trkpt lat="44.48739" lon="0.99286">
        <ele>72.72</ele>
        <time>2014-11-08T15:10:25Z</time>
      </trkpt>
      <trkpt lat="44.4878" lon="0.99245">
        <ele>72.24</ele>
        <time>2014-11-08T15:10:36Z</time>
      </trkpt>
      <trkpt lat="44.48784" lon="0.99242">
        <ele>72.24</ele>
        <time>2014-11-08T15:10:37Z</time>
      </trkpt>
      <trkpt lat="44.48846" lon="0.99177">
        <ele>72.72</ele>
        <time>2014-11-08T15:10:53Z</time>
      </trkpt>
      <trkpt lat="44.48894" lon="0.99101">
        <ele>72.24</ele>
        <time>2014-11-08T15:11:08Z</time>
      </trkpt>
      <trkpt lat="44.48949" lon="0.99007">
        <ele>71.76</ele>
        <time>2014-11-08T15:11:25Z</time>
      </trkpt>
      <trkpt lat="44.49003" lon="0.98931">
        <ele>71.27</ele>
        <time>2014-11-08T15:11:41Z</time>
      </trkpt>
      <trkpt lat="44.49007" lon="0.98927">
        <ele>71.27</ele>
        <time>2014-11-08T15:11:42Z</time>
      </trkpt>
      <trkpt lat="44.49011" lon="0.98924">
        <ele>71.27</ele>
        <time>2014-11-08T15:11:43Z</time>
      </trkpt>
      <trkpt lat="44.49015" lon="0.98924">
        <ele>71.76</ele>
        <time>2014-11-08T15:11:44Z</time>
      </trkpt>
      <trkpt lat="44.4902" lon="0.98925">
        <ele>71.76</ele>
        <time>2014-11-08T15:11:45Z</time>
      </trkpt>
      <trkpt lat="44.49024" lon="0.98927">
        <ele>71.76</ele>
        <time>2014-11-08T15:11:46Z</time>
      </trkpt>
      <trkpt lat="44.49029" lon="0.98929">
        <ele>71.76</ele>
        <time>2014-11-08T15:11:47Z</time>
      </trkpt>
      <trkpt lat="44.49033" lon="0.98931">
        <ele>71.76</ele>
        <time>2014-11-08T15:11:48Z</time>
      </trkpt>
      <trkpt lat="44.49104" lon="0.98963">
        <ele>70.31</ele>
        <time>2014-11-08T15:12:03Z</time>
      </trkpt>
      <trkpt lat="44.49114" lon="0.98964">
        <ele>70.31</ele>
        <time>2014-11-08T15:12:05Z</time>
      </trkpt>
      <trkpt lat="44.49118" lon="0.98963">
        <ele>70.31</ele>
        <time>2014-11-08T15:12:06Z</time>
      </trkpt>
      <trkpt lat="44.49122" lon="0.9896">
        <ele>70.31</ele>
        <time>2014-11-08T15:12:07Z</time>
      </trkpt>
      <trkpt lat="44.49126" lon="0.98956">
        <ele>70.31</ele>
        <time>2014-11-08T15:12:08Z</time>
      </trkpt>
      <trkpt lat="44.4913" lon="0.98952">
        <ele>70.31</ele>
        <time>2014-11-08T15:12:09Z</time>
      </trkpt>
      <trkpt lat="44.49134" lon="0.98947">
        <ele>69.83</ele>
        <time>2014-11-08T15:12:10Z</time>
      </trkpt>
      <trkpt lat="44.4918" lon="0.989">
        <ele>70.79</ele>
        <time>2014-11-08T15:12:22Z</time>
      </trkpt>
      <trkpt lat="44.49166" lon="0.98859">
        <ele>71.76</ele>
        <time>2014-11-08T15:12:36Z</time>
      </trkpt>
      <trkpt lat="44.49165" lon="0.98854">
        <ele>71.76</ele>
        <time>2014-11-08T15:12:38Z</time>
      </trkpt>
      <trkpt lat="44.49166" lon="0.98854">
        <ele>72.24</ele>
        <time>2014-11-08T15:12:39Z</time>
      </trkpt>
      <trkpt lat="44.49167" lon="0.98856">
        <ele>72.24</ele>
        <time>2014-11-08T15:12:41Z</time>
      </trkpt>
      <trkpt lat="44.49168" lon="0.98859">
        <ele>72.24</ele>
        <time>2014-11-08T15:12:42Z</time>
      </trkpt>
      <trkpt lat="44.49185" lon="0.98898">
        <ele>71.76</ele>
        <time>2014-11-08T15:12:53Z</time>
      </trkpt>
      <trkpt lat="44.49219" lon="0.98984">
        <ele>71.27</ele>
        <time>2014-11-08T15:13:11Z</time>
      </trkpt>
      <trkpt lat="44.4926" lon="0.99087">
        <ele>71.76</ele>
        <time>2014-11-08T15:13:29Z</time>
      </trkpt>
      <trkpt lat="44.49301" lon="0.99195">
        <ele>70.79</ele>
        <time>2014-11-08T15:13:47Z</time>
      </trkpt>
      <trkpt lat="44.49319" lon="0.99259">
        <ele>69.35</ele>
        <time>2014-11-08T15:13:59Z</time>
      </trkpt>
      <trkpt lat="44.49319" lon="0.99261">
        <ele>69.35</ele>
        <time>2014-11-08T15:14:00Z</time>
      </trkpt>
      <trkpt lat="44.49318" lon="0.9926">
        <ele>69.35</ele>
        <time>2014-11-08T15:14:01Z</time>
      </trkpt>
      <trkpt lat="44.49307" lon="0.99226">
        <ele>69.83</ele>
        <time>2014-11-08T15:14:12Z</time>
      </trkpt>
      <trkpt lat="44.493" lon="0.99202">
        <ele>68.87</ele>
        <time>2014-11-08T15:14:23Z</time>
      </trkpt>
      <trkpt lat="44.493" lon="0.99202">
        <ele>70.79</ele>
        <time>2014-11-08T15:14:54Z</time>
      </trkpt>
      <trkpt lat="44.493" lon="0.99201">
        <ele>70.79</ele>
        <time>2014-11-08T15:15:01Z</time>
      </trkpt>
      <trkpt lat="44.4929" lon="0.9919">
        <ele>69.35</ele>
        <time>2014-11-08T15:15:06Z</time>
      </trkpt>
      <trkpt lat="44.49279" lon="0.99176">
        <ele>67.91</ele>
        <time>2014-11-08T15:15:10Z</time>
      </trkpt>
      <trkpt lat="44.49271" lon="0.99157">
        <ele>66.95</ele>
        <time>2014-11-08T15:15:14Z</time>
      </trkpt>
      <trkpt lat="44.49268" lon="0.99147">
        <ele>65.99</ele>
        <time>2014-11-08T15:15:16Z</time>
      </trkpt>
      <trkpt lat="44.49268" lon="0.99143">
        <ele>65.99</ele>
        <time>2014-11-08T15:15:17Z</time>
      </trkpt>
      <trkpt lat="44.49267" lon="0.99141">
        <ele>65.51</ele>
        <time>2014-11-08T15:15:18Z</time>
      </trkpt>
      <trkpt lat="44.49265" lon="0.99138">
        <ele>65.51</ele>
        <time>2014-11-08T15:15:19Z</time>
      </trkpt>
      <trkpt lat="44.49263" lon="0.99135">
        <ele>65.51</ele>
        <time>2014-11-08T15:15:20Z</time>
      </trkpt>
      <trkpt lat="44.49261" lon="0.99131">
        <ele>65.51</ele>
        <time>2014-11-08T15:15:21Z</time>
      </trkpt>
      <trkpt lat="44.4925" lon="0.99097">
        <ele>63.58</ele>
        <time>2014-11-08T15:15:29Z</time>
      </trkpt>
      <trkpt lat="44.49252" lon="0.99093">
        <ele>63.58</ele>
        <time>2014-11-08T15:15:30Z</time>
      </trkpt>
      <trkpt lat="44.49276" lon="0.99071">
        <ele>64.07</ele>
        <time>2014-11-08T15:15:40Z</time>
      </trkpt>
      <trkpt lat="44.49279" lon="0.9907">
        <ele>64.55</ele>
        <time>2014-11-08T15:15:50Z</time>
      </trkpt>
      <trkpt lat="44.4928" lon="0.99068">
        <ele>64.07</ele>
        <time>2014-11-08T15:16:11Z</time>
      </trkpt>
      <trkpt lat="44.49281" lon="0.99067">
        <ele>64.07</ele>
        <time>2014-11-08T15:16:12Z</time>
      </trkpt>
      <trkpt lat="44.49315" lon="0.99042">
        <ele>64.07</ele>
        <time>2014-11-08T15:16:25Z</time>
      </trkpt>
      <trkpt lat="44.49366" lon="0.9899">
        <ele>63.58</ele>
        <time>2014-11-08T15:16:39Z</time>
      </trkpt>
      <trkpt lat="44.49424" lon="0.98929">
        <ele>63.58</ele>
        <time>2014-11-08T15:16:54Z</time>
      </trkpt>
      <trkpt lat="44.49485" lon="0.9886">
        <ele>63.58</ele>
        <time>2014-11-08T15:17:11Z</time>
      </trkpt>
      <trkpt lat="44.49489" lon="0.98855">
        <ele>63.58</ele>
        <time>2014-11-08T15:17:12Z</time>
      </trkpt>
      <trkpt lat="44.49511" lon="0.98829">
        <ele>62.62</ele>
        <time>2014-11-08T15:17:18Z</time>
      </trkpt>
      <trkpt lat="44.49515" lon="0.98826">
        <ele>62.62</ele>
        <time>2014-11-08T15:17:19Z</time>
      </trkpt>
      <trkpt lat="44.49574" lon="0.98805">
        <ele>62.14</ele>
        <time>2014-11-08T15:17:32Z</time>
      </trkpt>
      <trkpt lat="44.49578" lon="0.98803">
        <ele>61.66</ele>
        <time>2014-11-08T15:17:33Z</time>
      </trkpt>
      <trkpt lat="44.49583" lon="0.98802">
        <ele>61.66</ele>
        <time>2014-11-08T15:17:34Z</time>
      </trkpt>
      <trkpt lat="44.496" lon="0.98797">
        <ele>61.66</ele>
        <time>2014-11-08T15:17:38Z</time>
      </trkpt>
      <trkpt lat="44.4961" lon="0.98792">
        <ele>61.66</ele>
        <time>2014-11-08T15:17:41Z</time>
      </trkpt>
      <trkpt lat="44.49613" lon="0.98788">
        <ele>62.14</ele>
        <time>2014-11-08T15:17:42Z</time>
      </trkpt>
      <trkpt lat="44.49615" lon="0.98783">
        <ele>62.14</ele>
        <time>2014-11-08T15:17:43Z</time>
      </trkpt>
      <trkpt lat="44.49618" lon="0.98771">
        <ele>62.14</ele>
        <time>2014-11-08T15:17:45Z</time>
      </trkpt>
      <trkpt lat="44.49618" lon="0.98763">
        <ele>62.14</ele>
        <time>2014-11-08T15:17:46Z</time>
      </trkpt>
      <trkpt lat="44.49617" lon="0.98756">
        <ele>62.14</ele>
        <time>2014-11-08T15:17:47Z</time>
      </trkpt>
      <trkpt lat="44.49614" lon="0.9875">
        <ele>62.14</ele>
        <time>2014-11-08T15:17:48Z</time>
      </trkpt>
      <trkpt lat="44.49611" lon="0.98745">
        <ele>62.62</ele>
        <time>2014-11-08T15:17:49Z</time>
      </trkpt>
      <trkpt lat="44.49609" lon="0.9874">
        <ele>62.62</ele>
        <time>2014-11-08T15:17:50Z</time>
      </trkpt>
      <trkpt lat="44.49608" lon="0.98734">
        <ele>62.62</ele>
        <time>2014-11-08T15:17:51Z</time>
      </trkpt>
      <trkpt lat="44.49609" lon="0.9873">
        <ele>63.1</ele>
        <time>2014-11-08T15:17:52Z</time>
      </trkpt>
      <trkpt lat="44.49612" lon="0.98727">
        <ele>63.1</ele>
        <time>2014-11-08T15:17:53Z</time>
      </trkpt>
      <trkpt lat="44.49614" lon="0.98725">
        <ele>63.1</ele>
        <time>2014-11-08T15:17:54Z</time>
      </trkpt>
      <trkpt lat="44.49616" lon="0.98722">
        <ele>63.1</ele>
        <time>2014-11-08T15:17:55Z</time>
      </trkpt>
      <trkpt lat="44.49616" lon="0.98718">
        <ele>63.1</ele>
        <time>2014-11-08T15:17:56Z</time>
      </trkpt>
      <trkpt lat="44.49614" lon="0.98713">
        <ele>63.1</ele>
        <time>2014-11-08T15:17:57Z</time>
      </trkpt>
      <trkpt lat="44.49611" lon="0.98708">
        <ele>63.1</ele>
        <time>2014-11-08T15:17:58Z</time>
      </trkpt>
      <trkpt lat="44.49609" lon="0.98703">
        <ele>63.1</ele>
        <time>2014-11-08T15:17:59Z</time>
      </trkpt>
      <trkpt lat="44.49607" lon="0.98698">
        <ele>63.1</ele>
        <time>2014-11-08T15:18:00Z</time>
      </trkpt>
      <trkpt lat="44.49607" lon="0.98692">
        <ele>63.1</ele>
        <time>2014-11-08T15:18:01Z</time>
      </trkpt>
      <trkpt lat="44.49608" lon="0.98686">
        <ele>63.1</ele>
        <time>2014-11-08T15:18:02Z</time>
      </trkpt>
      <trkpt lat="44.4961" lon="0.9868">
        <ele>63.58</ele>
        <time>2014-11-08T15:18:03Z</time>
      </trkpt>
      <trkpt lat="44.49612" lon="0.98675">
        <ele>63.58</ele>
        <time>2014-11-08T15:18:04Z</time>
      </trkpt>
      <trkpt lat="44.49614" lon="0.9867">
        <ele>63.58</ele>
        <time>2014-11-08T15:18:05Z</time>
      </trkpt>
      <trkpt lat="44.49617" lon="0.98664">
        <ele>63.58</ele>
        <time>2014-11-08T15:18:06Z</time>
      </trkpt>
      <trkpt lat="44.49619" lon="0.98659">
        <ele>63.58</ele>
        <time>2014-11-08T15:18:07Z</time>
      </trkpt>
      <trkpt lat="44.49622" lon="0.98655">
        <ele>63.58</ele>
        <time>2014-11-08T15:18:08Z</time>
      </trkpt>
      <trkpt lat="44.49635" lon="0.98631">
        <ele>63.58</ele>
        <time>2014-11-08T15:18:15Z</time>
      </trkpt>
      <trkpt lat="44.49657" lon="0.98589">
        <ele>63.1</ele>
        <time>2014-11-08T15:18:27Z</time>
      </trkpt>
      <trkpt lat="44.49682" lon="0.98539">
        <ele>64.55</ele>
        <time>2014-11-08T15:18:39Z</time>
      </trkpt>
      <trkpt lat="44.49711" lon="0.98489">
        <ele>64.55</ele>
        <time>2014-11-08T15:18:52Z</time>
      </trkpt>
      <trkpt lat="44.49736" lon="0.98446">
        <ele>64.07</ele>
        <time>2014-11-08T15:19:03Z</time>
      </trkpt>
      <trkpt lat="44.49756" lon="0.98392">
        <ele>63.58</ele>
        <time>2014-11-08T15:19:14Z</time>
      </trkpt>
      <trkpt lat="44.49768" lon="0.98357">
        <ele>65.03</ele>
        <time>2014-11-08T15:19:22Z</time>
      </trkpt>
      <trkpt lat="44.49787" lon="0.98363">
        <ele>65.51</ele>
        <time>2014-11-08T15:19:30Z</time>
      </trkpt>
      <trkpt lat="44.49788" lon="0.98372">
        <ele>66.95</ele>
        <time>2014-11-08T15:19:33Z</time>
      </trkpt>
      <trkpt lat="44.49777" lon="0.98368">
        <ele>70.31</ele>
        <time>2014-11-08T15:19:41Z</time>
      </trkpt>
      <trkpt lat="44.49777" lon="0.98362">
        <ele>70.79</ele>
        <time>2014-11-08T15:19:46Z</time>
      </trkpt>
      <trkpt lat="44.49778" lon="0.98348">
        <ele>70.79</ele>
        <time>2014-11-08T15:19:54Z</time>
      </trkpt>
      <trkpt lat="44.49779" lon="0.98345">
        <ele>71.27</ele>
        <time>2014-11-08T15:19:55Z</time>
      </trkpt>
      <trkpt lat="44.4978" lon="0.98341">
        <ele>70.79</ele>
        <time>2014-11-08T15:19:56Z</time>
      </trkpt>
      <trkpt lat="44.49781" lon="0.98337">
        <ele>70.79</ele>
        <time>2014-11-08T15:19:57Z</time>
      </trkpt>
      <trkpt lat="44.49799" lon="0.98284">
        <ele>68.87</ele>
        <time>2014-11-08T15:20:10Z</time>
      </trkpt>
      <trkpt lat="44.49817" lon="0.98222">
        <ele>67.43</ele>
        <time>2014-11-08T15:20:22Z</time>
      </trkpt>
      <trkpt lat="44.49839" lon="0.98136">
        <ele>66.95</ele>
        <time>2014-11-08T15:20:37Z</time>
      </trkpt>
      <trkpt lat="44.49847" lon="0.98079">
        <ele>66.95</ele>
        <time>2014-11-08T15:20:47Z</time>
      </trkpt>
      <trkpt lat="44.49849" lon="0.98046">
        <ele>66.95</ele>
        <time>2014-11-08T15:20:52Z</time>
      </trkpt>
      <trkpt lat="44.4985" lon="0.98019">
        <ele>66.47</ele>
        <time>2014-11-08T15:20:56Z</time>
      </trkpt>
      <trkpt lat="44.49848" lon="0.97936">
        <ele>65.99</ele>
        <time>2014-11-08T15:21:08Z</time>
      </trkpt>
      <trkpt lat="44.49847" lon="0.97923">
        <ele>65.99</ele>
        <time>2014-11-08T15:21:10Z</time>
      </trkpt>
      <trkpt lat="44.49844" lon="0.97884">
        <ele>65.99</ele>
        <time>2014-11-08T15:21:16Z</time>
      </trkpt>
      <trkpt lat="44.49843" lon="0.97878">
        <ele>66.47</ele>
        <time>2014-11-08T15:21:17Z</time>
      </trkpt>
      <trkpt lat="44.4984" lon="0.97842">
        <ele>66.47</ele>
        <time>2014-11-08T15:21:22Z</time>
      </trkpt>
      <trkpt lat="44.4984" lon="0.97834">
        <ele>66.47</ele>
        <time>2014-11-08T15:21:23Z</time>
      </trkpt>
      <trkpt lat="44.49822" lon="0.97713">
        <ele>68.39</ele>
        <time>2014-11-08T15:21:38Z</time>
      </trkpt>
      <trkpt lat="44.49795" lon="0.97602">
        <ele>69.35</ele>
        <time>2014-11-08T15:21:52Z</time>
      </trkpt>
      <trkpt lat="44.49763" lon="0.97483">
        <ele>70.79</ele>
        <time>2014-11-08T15:22:07Z</time>
      </trkpt>
      <trkpt lat="44.4973" lon="0.97361">
        <ele>70.79</ele>
        <time>2014-11-08T15:22:22Z</time>
      </trkpt>
      <trkpt lat="44.49719" lon="0.97321">
        <ele>70.31</ele>
        <time>2014-11-08T15:22:27Z</time>
      </trkpt>
      <trkpt lat="44.49691" lon="0.97235">
        <ele>69.35</ele>
        <time>2014-11-08T15:22:39Z</time>
      </trkpt>
      <trkpt lat="44.49684" lon="0.97214">
        <ele>69.35</ele>
        <time>2014-11-08T15:22:42Z</time>
      </trkpt>
      <trkpt lat="44.49681" lon="0.97207">
        <ele>69.35</ele>
        <time>2014-11-08T15:22:43Z</time>
      </trkpt>
      <trkpt lat="44.49649" lon="0.97116">
        <ele>71.27</ele>
        <time>2014-11-08T15:22:57Z</time>
      </trkpt>
      <trkpt lat="44.49624" lon="0.97055">
        <ele>72.24</ele>
        <time>2014-11-08T15:23:06Z</time>
      </trkpt>
      <trkpt lat="44.49587" lon="0.96952">
        <ele>71.76</ele>
        <time>2014-11-08T15:23:21Z</time>
      </trkpt>
      <trkpt lat="44.49546" lon="0.96842">
        <ele>69.35</ele>
        <time>2014-11-08T15:23:36Z</time>
      </trkpt>
      <trkpt lat="44.49538" lon="0.9682">
        <ele>69.35</ele>
        <time>2014-11-08T15:23:39Z</time>
      </trkpt>
      <trkpt lat="44.49537" lon="0.96812">
        <ele>69.35</ele>
        <time>2014-11-08T15:23:40Z</time>
      </trkpt>
      <trkpt lat="44.49535" lon="0.96803">
        <ele>69.35</ele>
        <time>2014-11-08T15:23:41Z</time>
      </trkpt>
      <trkpt lat="44.49533" lon="0.96796">
        <ele>69.35</ele>
        <time>2014-11-08T15:23:42Z</time>
      </trkpt>
      <trkpt lat="44.4953" lon="0.96788">
        <ele>69.35</ele>
        <time>2014-11-08T15:23:43Z</time>
      </trkpt>
      <trkpt lat="44.49527" lon="0.96781">
        <ele>69.35</ele>
        <time>2014-11-08T15:23:44Z</time>
      </trkpt>
      <trkpt lat="44.49482" lon="0.96666">
        <ele>68.39</ele>
        <time>2014-11-08T15:24:00Z</time>
      </trkpt>
      <trkpt lat="44.49433" lon="0.9655">
        <ele>66.47</ele>
        <time>2014-11-08T15:24:16Z</time>
      </trkpt>
      <trkpt lat="44.49399" lon="0.96479">
        <ele>66.47</ele>
        <time>2014-11-08T15:24:30Z</time>
      </trkpt>
      <trkpt lat="44.49398" lon="0.96474">
        <ele>67.91</ele>
        <time>2014-11-08T15:24:40Z</time>
      </trkpt>
      <trkpt lat="44.49398" lon="0.96473">
        <ele>68.39</ele>
        <time>2014-11-08T15:24:45Z</time>
      </trkpt>
      <trkpt lat="44.49396" lon="0.96469">
        <ele>69.35</ele>
        <time>2014-11-08T15:24:48Z</time>
      </trkpt>
      <trkpt lat="44.49392" lon="0.96464">
        <ele>68.87</ele>
        <time>2014-11-08T15:25:03Z</time>
      </trkpt>
      <trkpt lat="44.49391" lon="0.96466">
        <ele>69.83</ele>
        <time>2014-11-08T15:25:25Z</time>
      </trkpt>
      <trkpt lat="44.49391" lon="0.96467">
        <ele>69.83</ele>
        <time>2014-11-08T15:25:28Z</time>
      </trkpt>
      <trkpt lat="44.49386" lon="0.96454">
        <ele>69.83</ele>
        <time>2014-11-08T15:25:33Z</time>
      </trkpt>
      <trkpt lat="44.49382" lon="0.96444">
        <ele>69.83</ele>
        <time>2014-11-08T15:25:35Z</time>
      </trkpt>
      <trkpt lat="44.49345" lon="0.9635">
        <ele>68.87</ele>
        <time>2014-11-08T15:25:51Z</time>
      </trkpt>
      <trkpt lat="44.49303" lon="0.9625">
        <ele>68.39</ele>
        <time>2014-11-08T15:26:06Z</time>
      </trkpt>
      <trkpt lat="44.49257" lon="0.96141">
        <ele>66.47</ele>
        <time>2014-11-08T15:26:22Z</time>
      </trkpt>
      <trkpt lat="44.49246" lon="0.96113">
        <ele>65.99</ele>
        <time>2014-11-08T15:26:27Z</time>
      </trkpt>
      <trkpt lat="44.49244" lon="0.96108">
        <ele>65.99</ele>
        <time>2014-11-08T15:26:28Z</time>
      </trkpt>
      <trkpt lat="44.49242" lon="0.96103">
        <ele>65.99</ele>
        <time>2014-11-08T15:26:29Z</time>
      </trkpt>
      <trkpt lat="44.4924" lon="0.96099">
        <ele>65.99</ele>
        <time>2014-11-08T15:26:30Z</time>
      </trkpt>
      <trkpt lat="44.49238" lon="0.96094">
        <ele>65.51</ele>
        <time>2014-11-08T15:26:31Z</time>
      </trkpt>
      <trkpt lat="44.49236" lon="0.96089">
        <ele>65.51</ele>
        <time>2014-11-08T15:26:32Z</time>
      </trkpt>
      <trkpt lat="44.49234" lon="0.96084">
        <ele>65.51</ele>
        <time>2014-11-08T15:26:33Z</time>
      </trkpt>
      <trkpt lat="44.49231" lon="0.96079">
        <ele>65.51</ele>
        <time>2014-11-08T15:26:34Z</time>
      </trkpt>
      <trkpt lat="44.49229" lon="0.96073">
        <ele>65.51</ele>
        <time>2014-11-08T15:26:35Z</time>
      </trkpt>
      <trkpt lat="44.49226" lon="0.96066">
        <ele>65.51</ele>
        <time>2014-11-08T15:26:36Z</time>
      </trkpt>
      <trkpt lat="44.49191" lon="0.95983">
        <ele>65.51</ele>
        <time>2014-11-08T15:26:47Z</time>
      </trkpt>
      <trkpt lat="44.49132" lon="0.95848">
        <ele>65.51</ele>
        <time>2014-11-08T15:27:02Z</time>
      </trkpt>
      <trkpt lat="44.49071" lon="0.95702">
        <ele>65.03</ele>
        <time>2014-11-08T15:27:18Z</time>
      </trkpt>
      <trkpt lat="44.49012" lon="0.95552">
        <ele>64.07</ele>
        <time>2014-11-08T15:27:35Z</time>
      </trkpt>
      <trkpt lat="44.49007" lon="0.95536">
        <ele>64.07</ele>
        <time>2014-11-08T15:27:37Z</time>
      </trkpt>
      <trkpt lat="44.48979" lon="0.95406">
        <ele>64.55</ele>
        <time>2014-11-08T15:27:52Z</time>
      </trkpt>
      <trkpt lat="44.48971" lon="0.95308">
        <ele>65.51</ele>
        <time>2014-11-08T15:28:03Z</time>
      </trkpt>
      <trkpt lat="44.48956" lon="0.95136">
        <ele>65.99</ele>
        <time>2014-11-08T15:28:24Z</time>
      </trkpt>
      <trkpt lat="44.48944" lon="0.95008">
        <ele>66.47</ele>
        <time>2014-11-08T15:28:40Z</time>
      </trkpt>
      <trkpt lat="44.48932" lon="0.94879">
        <ele>67.43</ele>
        <time>2014-11-08T15:28:56Z</time>
      </trkpt>
      <trkpt lat="44.48918" lon="0.9474">
        <ele>68.87</ele>
        <time>2014-11-08T15:29:14Z</time>
      </trkpt>
      <trkpt lat="44.48909" lon="0.94628">
        <ele>68.87</ele>
        <time>2014-11-08T15:29:29Z</time>
      </trkpt>
      <trkpt lat="44.48907" lon="0.94605">
        <ele>69.35</ele>
        <time>2014-11-08T15:29:34Z</time>
      </trkpt>
      <trkpt lat="44.48904" lon="0.94598">
        <ele>69.83</ele>
        <time>2014-11-08T15:29:38Z</time>
      </trkpt>
      <trkpt lat="44.48903" lon="0.9459">
        <ele>70.31</ele>
        <time>2014-11-08T15:29:51Z</time>
      </trkpt>
      <trkpt lat="44.48903" lon="0.94589">
        <ele>70.79</ele>
        <time>2014-11-08T15:30:01Z</time>
      </trkpt>
      <trkpt lat="44.48897" lon="0.94571">
        <ele>71.27</ele>
        <time>2014-11-08T15:30:09Z</time>
      </trkpt>
      <trkpt lat="44.4889" lon="0.94558">
        <ele>70.31</ele>
        <time>2014-11-08T15:30:13Z</time>
      </trkpt>
      <trkpt lat="44.48887" lon="0.94558">
        <ele>70.31</ele>
        <time>2014-11-08T15:30:14Z</time>
      </trkpt>
      <trkpt lat="44.48884" lon="0.94559">
        <ele>70.31</ele>
        <time>2014-11-08T15:30:15Z</time>
      </trkpt>
      <trkpt lat="44.4888" lon="0.94559">
        <ele>70.31</ele>
        <time>2014-11-08T15:30:16Z</time>
      </trkpt>
      <trkpt lat="44.48876" lon="0.94559">
        <ele>70.31</ele>
        <time>2014-11-08T15:30:17Z</time>
      </trkpt>
      <trkpt lat="44.48873" lon="0.9456">
        <ele>70.31</ele>
        <time>2014-11-08T15:30:18Z</time>
      </trkpt>
      <trkpt lat="44.48871" lon="0.94564">
        <ele>70.31</ele>
        <time>2014-11-08T15:30:19Z</time>
      </trkpt>
      <trkpt lat="44.48868" lon="0.94568">
        <ele>70.31</ele>
        <time>2014-11-08T15:30:20Z</time>
      </trkpt>
      <trkpt lat="44.48865" lon="0.94571">
        <ele>69.83</ele>
        <time>2014-11-08T15:30:21Z</time>
      </trkpt>
      <trkpt lat="44.48862" lon="0.94573">
        <ele>69.83</ele>
        <time>2014-11-08T15:30:22Z</time>
      </trkpt>
      <trkpt lat="44.48857" lon="0.94574">
        <ele>69.83</ele>
        <time>2014-11-08T15:30:23Z</time>
      </trkpt>
      <trkpt lat="44.48848" lon="0.94578">
        <ele>69.35</ele>
        <time>2014-11-08T15:30:25Z</time>
      </trkpt>
      <trkpt lat="44.48845" lon="0.94581">
        <ele>68.87</ele>
        <time>2014-11-08T15:30:26Z</time>
      </trkpt>
      <trkpt lat="44.48833" lon="0.9459">
        <ele>67.91</ele>
        <time>2014-11-08T15:30:29Z</time>
      </trkpt>
      <trkpt lat="44.48829" lon="0.94592">
        <ele>67.91</ele>
        <time>2014-11-08T15:30:30Z</time>
      </trkpt>
      <trkpt lat="44.48824" lon="0.94593">
        <ele>67.91</ele>
        <time>2014-11-08T15:30:31Z</time>
      </trkpt>
      <trkpt lat="44.48819" lon="0.94593">
        <ele>67.43</ele>
        <time>2014-11-08T15:30:32Z</time>
      </trkpt>
      <trkpt lat="44.48811" lon="0.94593">
        <ele>66.95</ele>
        <time>2014-11-08T15:30:34Z</time>
      </trkpt>
      <trkpt lat="44.48799" lon="0.94589">
        <ele>66.47</ele>
        <time>2014-11-08T15:30:37Z</time>
      </trkpt>
      <trkpt lat="44.48782" lon="0.94576">
        <ele>65.51</ele>
        <time>2014-11-08T15:30:41Z</time>
      </trkpt>
      <trkpt lat="44.48766" lon="0.94559">
        <ele>64.55</ele>
        <time>2014-11-08T15:30:45Z</time>
      </trkpt>
      <trkpt lat="44.48741" lon="0.94523">
        <ele>65.03</ele>
        <time>2014-11-08T15:30:57Z</time>
      </trkpt>
      <trkpt lat="44.48729" lon="0.94524">
        <ele>65.99</ele>
        <time>2014-11-08T15:31:10Z</time>
      </trkpt>
      <trkpt lat="44.48713" lon="0.9453">
        <ele>68.39</ele>
        <time>2014-11-08T15:31:20Z</time>
      </trkpt>
      <trkpt lat="44.48705" lon="0.94529">
        <ele>68.39</ele>
        <time>2014-11-08T15:31:22Z</time>
      </trkpt>
      <trkpt lat="44.48696" lon="0.94532">
        <ele>68.39</ele>
        <time>2014-11-08T15:31:24Z</time>
      </trkpt>
      <trkpt lat="44.48691" lon="0.94534">
        <ele>68.39</ele>
        <time>2014-11-08T15:31:25Z</time>
      </trkpt>
      <trkpt lat="44.48685" lon="0.94535">
        <ele>68.39</ele>
        <time>2014-11-08T15:31:26Z</time>
      </trkpt>
      <trkpt lat="44.4868" lon="0.94534">
        <ele>68.39</ele>
        <time>2014-11-08T15:31:27Z</time>
      </trkpt>
      <trkpt lat="44.48675" lon="0.9453">
        <ele>68.87</ele>
        <time>2014-11-08T15:31:28Z</time>
      </trkpt>
      <trkpt lat="44.48669" lon="0.94525">
        <ele>68.87</ele>
        <time>2014-11-08T15:31:29Z</time>
      </trkpt>
      <trkpt lat="44.48664" lon="0.94521">
        <ele>68.87</ele>
        <time>2014-11-08T15:31:30Z</time>
      </trkpt>
      <trkpt lat="44.48646" lon="0.94506">
        <ele>68.87</ele>
        <time>2014-11-08T15:31:33Z</time>
      </trkpt>
      <trkpt lat="44.48641" lon="0.945">
        <ele>68.39</ele>
        <time>2014-11-08T15:31:34Z</time>
      </trkpt>
      <trkpt lat="44.48636" lon="0.94494">
        <ele>68.39</ele>
        <time>2014-11-08T15:31:35Z</time>
      </trkpt>
      <trkpt lat="44.48631" lon="0.94487">
        <ele>68.39</ele>
        <time>2014-11-08T15:31:36Z</time>
      </trkpt>
      <trkpt lat="44.48628" lon="0.94482">
        <ele>68.39</ele>
        <time>2014-11-08T15:31:37Z</time>
      </trkpt>
      <trkpt lat="44.48625" lon="0.9448">
        <ele>68.39</ele>
        <time>2014-11-08T15:31:38Z</time>
      </trkpt>
      <trkpt lat="44.48623" lon="0.94479">
        <ele>68.39</ele>
        <time>2014-11-08T15:31:39Z</time>
      </trkpt>
      <trkpt lat="44.48621" lon="0.94479">
        <ele>67.91</ele>
        <time>2014-11-08T15:31:40Z</time>
      </trkpt>
      <trkpt lat="44.48619" lon="0.94478">
        <ele>68.39</ele>
        <time>2014-11-08T15:31:41Z</time>
      </trkpt>
      <trkpt lat="44.48584" lon="0.94471">
        <ele>69.83</ele>
        <time>2014-11-08T15:31:52Z</time>
      </trkpt>
      <trkpt lat="44.4858" lon="0.94467">
        <ele>69.35</ele>
        <time>2014-11-08T15:31:53Z</time>
      </trkpt>
      <trkpt lat="44.48577" lon="0.94463">
        <ele>69.35</ele>
        <time>2014-11-08T15:31:54Z</time>
      </trkpt>
      <trkpt lat="44.48574" lon="0.94461">
        <ele>69.35</ele>
        <time>2014-11-08T15:31:55Z</time>
      </trkpt>
      <trkpt lat="44.4857" lon="0.94459">
        <ele>69.35</ele>
        <time>2014-11-08T15:31:56Z</time>
      </trkpt>
      <trkpt lat="44.48566" lon="0.94457">
        <ele>69.35</ele>
        <time>2014-11-08T15:31:57Z</time>
      </trkpt>
      <trkpt lat="44.48563" lon="0.94454">
        <ele>69.83</ele>
        <time>2014-11-08T15:31:58Z</time>
      </trkpt>
      <trkpt lat="44.48561" lon="0.94452">
        <ele>69.83</ele>
        <time>2014-11-08T15:31:59Z</time>
      </trkpt>
      <trkpt lat="44.48558" lon="0.94452">
        <ele>69.83</ele>
        <time>2014-11-08T15:32:00Z</time>
      </trkpt>
      <trkpt lat="44.48556" lon="0.9445">
        <ele>69.83</ele>
        <time>2014-11-08T15:32:01Z</time>
      </trkpt>
      <trkpt lat="44.48553" lon="0.94447">
        <ele>69.35</ele>
        <time>2014-11-08T15:32:02Z</time>
      </trkpt>
      <trkpt lat="44.48551" lon="0.94444">
        <ele>69.35</ele>
        <time>2014-11-08T15:32:03Z</time>
      </trkpt>
      <trkpt lat="44.48544" lon="0.94431">
        <ele>68.39</ele>
        <time>2014-11-08T15:32:06Z</time>
      </trkpt>
      <trkpt lat="44.48541" lon="0.94426">
        <ele>67.91</ele>
        <time>2014-11-08T15:32:07Z</time>
      </trkpt>
      <trkpt lat="44.48521" lon="0.94419">
        <ele>66.47</ele>
        <time>2014-11-08T15:32:12Z</time>
      </trkpt>
      <trkpt lat="44.48474" lon="0.94436">
        <ele>65.03</ele>
        <time>2014-11-08T15:32:22Z</time>
      </trkpt>
      <trkpt lat="44.48445" lon="0.94443">
        <ele>64.07</ele>
        <time>2014-11-08T15:32:29Z</time>
      </trkpt>
      <trkpt lat="44.48441" lon="0.94452">
        <ele>64.07</ele>
        <time>2014-11-08T15:32:40Z</time>
      </trkpt>
      <trkpt lat="44.48441" lon="0.94454">
        <ele>64.55</ele>
        <time>2014-11-08T15:32:53Z</time>
      </trkpt>
      <trkpt lat="44.48439" lon="0.94471">
        <ele>65.03</ele>
        <time>2014-11-08T15:33:03Z</time>
      </trkpt>
      <trkpt lat="44.48437" lon="0.9448">
        <ele>65.51</ele>
        <time>2014-11-08T15:33:06Z</time>
      </trkpt>
      <trkpt lat="44.48436" lon="0.94481">
        <ele>65.51</ele>
        <time>2014-11-08T15:33:07Z</time>
      </trkpt>
      <trkpt lat="44.48434" lon="0.94482">
        <ele>65.51</ele>
        <time>2014-11-08T15:33:08Z</time>
      </trkpt>
      <trkpt lat="44.48432" lon="0.94483">
        <ele>65.99</ele>
        <time>2014-11-08T15:33:09Z</time>
      </trkpt>
      <trkpt lat="44.4843" lon="0.94484">
        <ele>65.99</ele>
        <time>2014-11-08T15:33:10Z</time>
      </trkpt>
      <trkpt lat="44.48427" lon="0.94484">
        <ele>65.99</ele>
        <time>2014-11-08T15:33:11Z</time>
      </trkpt>
      <trkpt lat="44.48424" lon="0.94483">
        <ele>66.47</ele>
        <time>2014-11-08T15:33:12Z</time>
      </trkpt>
      <trkpt lat="44.48422" lon="0.94481">
        <ele>66.47</ele>
        <time>2014-11-08T15:33:13Z</time>
      </trkpt>
      <trkpt lat="44.4842" lon="0.94479">
        <ele>65.99</ele>
        <time>2014-11-08T15:33:14Z</time>
      </trkpt>
      <trkpt lat="44.48417" lon="0.94478">
        <ele>65.99</ele>
        <time>2014-11-08T15:33:15Z</time>
      </trkpt>
      <trkpt lat="44.48415" lon="0.94478">
        <ele>65.99</ele>
        <time>2014-11-08T15:33:16Z</time>
      </trkpt>
      <trkpt lat="44.48413" lon="0.94479">
        <ele>65.51</ele>
        <time>2014-11-08T15:33:17Z</time>
      </trkpt>
      <trkpt lat="44.48411" lon="0.94479">
        <ele>65.51</ele>
        <time>2014-11-08T15:33:18Z</time>
      </trkpt>
      <trkpt lat="44.48409" lon="0.94478">
        <ele>65.51</ele>
        <time>2014-11-08T15:33:19Z</time>
      </trkpt>
      <trkpt lat="44.48407" lon="0.94476">
        <ele>65.51</ele>
        <time>2014-11-08T15:33:20Z</time>
      </trkpt>
      <trkpt lat="44.48406" lon="0.94474">
        <ele>65.51</ele>
        <time>2014-11-08T15:33:21Z</time>
      </trkpt>
      <trkpt lat="44.48402" lon="0.94458">
        <ele>65.51</ele>
        <time>2014-11-08T15:33:32Z</time>
      </trkpt>
      <trkpt lat="44.48402" lon="0.94461">
        <ele>65.99</ele>
        <time>2014-11-08T15:33:49Z</time>
      </trkpt>
      <trkpt lat="44.484" lon="0.9446">
        <ele>65.99</ele>
        <time>2014-11-08T15:34:03Z</time>
      </trkpt>
      <trkpt lat="44.484" lon="0.94459">
        <ele>65.03</ele>
        <time>2014-11-08T15:34:25Z</time>
      </trkpt>
      <trkpt lat="44.48399" lon="0.94443">
        <ele>65.03</ele>
        <time>2014-11-08T15:34:40Z</time>
      </trkpt>
      <trkpt lat="44.48396" lon="0.94431">
        <ele>64.55</ele>
        <time>2014-11-08T15:34:45Z</time>
      </trkpt>
      <trkpt lat="44.48396" lon="0.94429">
        <ele>64.55</ele>
        <time>2014-11-08T15:34:46Z</time>
      </trkpt>
      <trkpt lat="44.48395" lon="0.94427">
        <ele>64.55</ele>
        <time>2014-11-08T15:34:47Z</time>
      </trkpt>
      <trkpt lat="44.48395" lon="0.94424">
        <ele>64.55</ele>
        <time>2014-11-08T15:34:48Z</time>
      </trkpt>
      <trkpt lat="44.48395" lon="0.94421">
        <ele>64.55</ele>
        <time>2014-11-08T15:34:49Z</time>
      </trkpt>
      <trkpt lat="44.48389" lon="0.94395">
        <ele>64.55</ele>
        <time>2014-11-08T15:35:02Z</time>
      </trkpt>
      <trkpt lat="44.48387" lon="0.94392">
        <ele>64.07</ele>
        <time>2014-11-08T15:35:04Z</time>
      </trkpt>
      <trkpt lat="44.48385" lon="0.9439">
        <ele>64.07</ele>
        <time>2014-11-08T15:35:05Z</time>
      </trkpt>
      <trkpt lat="44.48382" lon="0.9439">
        <ele>64.07</ele>
        <time>2014-11-08T15:35:06Z</time>
      </trkpt>
      <trkpt lat="44.48378" lon="0.94391">
        <ele>64.07</ele>
        <time>2014-11-08T15:35:07Z</time>
      </trkpt>
      <trkpt lat="44.48374" lon="0.94392">
        <ele>64.07</ele>
        <time>2014-11-08T15:35:08Z</time>
      </trkpt>
      <trkpt lat="44.48318" lon="0.94406">
        <ele>64.55</ele>
        <time>2014-11-08T15:35:20Z</time>
      </trkpt>
      <trkpt lat="44.48313" lon="0.94408">
        <ele>64.55</ele>
        <time>2014-11-08T15:35:21Z</time>
      </trkpt>
      <trkpt lat="44.48304" lon="0.9441">
        <ele>65.51</ele>
        <time>2014-11-08T15:35:23Z</time>
      </trkpt>
      <trkpt lat="44.48245" lon="0.94424">
        <ele>66.95</ele>
        <time>2014-11-08T15:35:37Z</time>
      </trkpt>
      <trkpt lat="44.48243" lon="0.94426">
        <ele>66.95</ele>
        <time>2014-11-08T15:35:38Z</time>
      </trkpt>
      <trkpt lat="44.48242" lon="0.9443">
        <ele>67.43</ele>
        <time>2014-11-08T15:35:39Z</time>
      </trkpt>
      <trkpt lat="44.48242" lon="0.94434">
        <ele>67.43</ele>
        <time>2014-11-08T15:35:40Z</time>
      </trkpt>
      <trkpt lat="44.48243" lon="0.94439">
        <ele>67.43</ele>
        <time>2014-11-08T15:35:41Z</time>
      </trkpt>
      <trkpt lat="44.48244" lon="0.94445">
        <ele>67.43</ele>
        <time>2014-11-08T15:35:42Z</time>
      </trkpt>
      <trkpt lat="44.48247" lon="0.94467">
        <ele>67.43</ele>
        <time>2014-11-08T15:35:46Z</time>
      </trkpt>
      <trkpt lat="44.48245" lon="0.94472">
        <ele>67.43</ele>
        <time>2014-11-08T15:35:47Z</time>
      </trkpt>
      <trkpt lat="44.48242" lon="0.94476">
        <ele>66.95</ele>
        <time>2014-11-08T15:35:48Z</time>
      </trkpt>
      <trkpt lat="44.48238" lon="0.9448">
        <ele>66.95</ele>
        <time>2014-11-08T15:35:49Z</time>
      </trkpt>
      <trkpt lat="44.48234" lon="0.94482">
        <ele>66.95</ele>
        <time>2014-11-08T15:35:50Z</time>
      </trkpt>
      <trkpt lat="44.48229" lon="0.94484">
        <ele>66.95</ele>
        <time>2014-11-08T15:35:51Z</time>
      </trkpt>
      <trkpt lat="44.48154" lon="0.94516">
        <ele>66.47</ele>
        <time>2014-11-08T15:36:05Z</time>
      </trkpt>
      <trkpt lat="44.48147" lon="0.94524">
        <ele>65.51</ele>
        <time>2014-11-08T15:36:11Z</time>
      </trkpt>
      <trkpt lat="44.48126" lon="0.94536">
        <ele>65.03</ele>
        <time>2014-11-08T15:36:23Z</time>
      </trkpt>
      <trkpt lat="44.481" lon="0.94554">
        <ele>63.1</ele>
        <time>2014-11-08T15:36:32Z</time>
      </trkpt>
      <trkpt lat="44.48099" lon="0.94556">
        <ele>62.62</ele>
        <time>2014-11-08T15:36:34Z</time>
      </trkpt>
      <trkpt lat="44.48098" lon="0.94559">
        <ele>62.62</ele>
        <time>2014-11-08T15:36:35Z</time>
      </trkpt>
      <trkpt lat="44.48098" lon="0.94564">
        <ele>62.62</ele>
        <time>2014-11-08T15:36:36Z</time>
      </trkpt>
      <trkpt lat="44.48099" lon="0.9457">
        <ele>62.62</ele>
        <time>2014-11-08T15:36:37Z</time>
      </trkpt>
      <trkpt lat="44.48101" lon="0.94576">
        <ele>62.62</ele>
        <time>2014-11-08T15:36:38Z</time>
      </trkpt>
      <trkpt lat="44.48103" lon="0.94582">
        <ele>62.62</ele>
        <time>2014-11-08T15:36:39Z</time>
      </trkpt>
      <trkpt lat="44.48116" lon="0.94617">
        <ele>63.1</ele>
        <time>2014-11-08T15:36:45Z</time>
      </trkpt>
      <trkpt lat="44.48134" lon="0.94664">
        <ele>62.62</ele>
        <time>2014-11-08T15:36:53Z</time>
      </trkpt>
      <trkpt lat="44.48135" lon="0.94671">
        <ele>62.62</ele>
        <time>2014-11-08T15:36:54Z</time>
      </trkpt>
      <trkpt lat="44.48133" lon="0.94677">
        <ele>63.1</ele>
        <time>2014-11-08T15:36:55Z</time>
      </trkpt>
      <trkpt lat="44.48129" lon="0.94681">
        <ele>63.1</ele>
        <time>2014-11-08T15:36:56Z</time>
      </trkpt>
      <trkpt lat="44.48124" lon="0.94685">
        <ele>63.1</ele>
        <time>2014-11-08T15:36:57Z</time>
      </trkpt>
      <trkpt lat="44.48119" lon="0.94689">
        <ele>63.58</ele>
        <time>2014-11-08T15:36:58Z</time>
      </trkpt>
      <trkpt lat="44.48048" lon="0.94746">
        <ele>65.51</ele>
        <time>2014-11-08T15:37:13Z</time>
      </trkpt>
      <trkpt lat="44.48043" lon="0.9475">
        <ele>65.03</ele>
        <time>2014-11-08T15:37:14Z</time>
      </trkpt>
      <trkpt lat="44.48039" lon="0.94754">
        <ele>65.03</ele>
        <time>2014-11-08T15:37:15Z</time>
      </trkpt>
      <trkpt lat="44.48015" lon="0.94773">
        <ele>62.14</ele>
        <time>2014-11-08T15:37:21Z</time>
      </trkpt>
      <trkpt lat="44.48013" lon="0.9477">
        <ele>61.66</ele>
        <time>2014-11-08T15:37:22Z</time>
      </trkpt>
      <trkpt lat="44.48011" lon="0.94766">
        <ele>61.18</ele>
        <time>2014-11-08T15:37:23Z</time>
      </trkpt>
      <trkpt lat="44.48012" lon="0.94763">
        <ele>60.7</ele>
        <time>2014-11-08T15:37:24Z</time>
      </trkpt>
      <trkpt lat="44.48014" lon="0.94762">
        <ele>60.22</ele>
        <time>2014-11-08T15:37:25Z</time>
      </trkpt>
      <trkpt lat="44.48017" lon="0.94763">
        <ele>59.74</ele>
        <time>2014-11-08T15:37:26Z</time>
      </trkpt>
      <trkpt lat="44.4802" lon="0.94766">
        <ele>59.74</ele>
        <time>2014-11-08T15:37:27Z</time>
      </trkpt>
      <trkpt lat="44.48022" lon="0.94769">
        <ele>59.26</ele>
        <time>2014-11-08T15:37:28Z</time>
      </trkpt>
      <trkpt lat="44.48024" lon="0.94774">
        <ele>59.26</ele>
        <time>2014-11-08T15:37:29Z</time>
      </trkpt>
      <trkpt lat="44.48025" lon="0.94779">
        <ele>58.78</ele>
        <time>2014-11-08T15:37:30Z</time>
      </trkpt>
      <trkpt lat="44.48026" lon="0.94784">
        <ele>58.78</ele>
        <time>2014-11-08T15:37:31Z</time>
      </trkpt>
      <trkpt lat="44.48026" lon="0.94787">
        <ele>58.78</ele>
        <time>2014-11-08T15:37:32Z</time>
      </trkpt>
      <trkpt lat="44.48026" lon="0.9479">
        <ele>58.3</ele>
        <time>2014-11-08T15:37:33Z</time>
      </trkpt>
      <trkpt lat="44.48026" lon="0.94792">
        <ele>58.3</ele>
        <time>2014-11-08T15:37:34Z</time>
      </trkpt>
      <trkpt lat="44.48027" lon="0.94794">
        <ele>58.3</ele>
        <time>2014-11-08T15:37:35Z</time>
      </trkpt>
      <trkpt lat="44.48028" lon="0.94807">
        <ele>58.3</ele>
        <time>2014-11-08T15:37:44Z</time>
      </trkpt>
      <trkpt lat="44.48041" lon="0.94853">
        <ele>61.66</ele>
        <time>2014-11-08T15:37:57Z</time>
      </trkpt>
      <trkpt lat="44.4806" lon="0.94892">
        <ele>65.03</ele>
        <time>2014-11-08T15:38:09Z</time>
      </trkpt>
      <trkpt lat="44.48069" lon="0.94911">
        <ele>65.99</ele>
        <time>2014-11-08T15:38:15Z</time>
      </trkpt>
      <trkpt lat="44.48073" lon="0.94923">
        <ele>65.03</ele>
        <time>2014-11-08T15:38:20Z</time>
      </trkpt>
      <trkpt lat="44.48079" lon="0.94937">
        <ele>64.07</ele>
        <time>2014-11-08T15:38:32Z</time>
      </trkpt>
      <trkpt lat="44.48082" lon="0.94943">
        <ele>62.62</ele>
        <time>2014-11-08T15:38:45Z</time>
      </trkpt>
      <trkpt lat="44.48082" lon="0.94943">
        <ele>60.7</ele>
        <time>2014-11-08T15:39:04Z</time>
      </trkpt>
      <trkpt lat="44.48081" lon="0.94943">
        <ele>61.18</ele>
        <time>2014-11-08T15:39:25Z</time>
      </trkpt>
      <trkpt lat="44.4808" lon="0.94941">
        <ele>60.22</ele>
        <time>2014-11-08T15:39:41Z</time>
      </trkpt>
      <trkpt lat="44.48079" lon="0.94938">
        <ele>60.22</ele>
        <time>2014-11-08T15:39:54Z</time>
      </trkpt>
      <trkpt lat="44.48067" lon="0.94909">
        <ele>61.66</ele>
        <time>2014-11-08T15:40:07Z</time>
      </trkpt>
      <trkpt lat="44.48053" lon="0.94881">
        <ele>60.7</ele>
        <time>2014-11-08T15:40:13Z</time>
      </trkpt>
      <trkpt lat="44.48032" lon="0.94835">
        <ele>58.78</ele>
        <time>2014-11-08T15:40:24Z</time>
      </trkpt>
      <trkpt lat="44.48031" lon="0.94828">
        <ele>58.78</ele>
        <time>2014-11-08T15:40:25Z</time>
      </trkpt>
      <trkpt lat="44.4803" lon="0.94821">
        <ele>58.78</ele>
        <time>2014-11-08T15:40:26Z</time>
      </trkpt>
      <trkpt lat="44.48026" lon="0.94798">
        <ele>57.82</ele>
        <time>2014-11-08T15:40:34Z</time>
      </trkpt>
      <trkpt lat="44.48015" lon="0.94764">
        <ele>56.86</ele>
        <time>2014-11-08T15:40:44Z</time>
      </trkpt>
      <trkpt lat="44.47995" lon="0.94733">
        <ele>59.74</ele>
        <time>2014-11-08T15:40:54Z</time>
      </trkpt>
      <trkpt lat="44.47979" lon="0.9469">
        <ele>63.1</ele>
        <time>2014-11-08T15:41:06Z</time>
      </trkpt>
      <trkpt lat="44.47959" lon="0.94629">
        <ele>63.58</ele>
        <time>2014-11-08T15:41:19Z</time>
      </trkpt>
      <trkpt lat="44.47955" lon="0.94618">
        <ele>64.07</ele>
        <time>2014-11-08T15:41:21Z</time>
      </trkpt>
      <trkpt lat="44.47949" lon="0.946">
        <ele>64.55</ele>
        <time>2014-11-08T15:41:24Z</time>
      </trkpt>
      <trkpt lat="44.47932" lon="0.94536">
        <ele>63.58</ele>
        <time>2014-11-08T15:41:35Z</time>
      </trkpt>
      <trkpt lat="44.47931" lon="0.9453">
        <ele>63.58</ele>
        <time>2014-11-08T15:41:36Z</time>
      </trkpt>
      <trkpt lat="44.47929" lon="0.94524">
        <ele>63.58</ele>
        <time>2014-11-08T15:41:37Z</time>
      </trkpt>
      <trkpt lat="44.47901" lon="0.94437">
        <ele>63.58</ele>
        <time>2014-11-08T15:41:52Z</time>
      </trkpt>
      <trkpt lat="44.47869" lon="0.94346">
        <ele>63.58</ele>
        <time>2014-11-08T15:42:06Z</time>
      </trkpt>
      <trkpt lat="44.47846" lon="0.94289">
        <ele>62.62</ele>
        <time>2014-11-08T15:42:16Z</time>
      </trkpt>
      <trkpt lat="44.47837" lon="0.94259">
        <ele>61.66</ele>
        <time>2014-11-08T15:42:21Z</time>
      </trkpt>
      <trkpt lat="44.47831" lon="0.94242">
        <ele>61.18</ele>
        <time>2014-11-08T15:42:24Z</time>
      </trkpt>
      <trkpt lat="44.47819" lon="0.94227">
        <ele>61.18</ele>
        <time>2014-11-08T15:42:28Z</time>
      </trkpt>
      <trkpt lat="44.47796" lon="0.94186">
        <ele>61.18</ele>
        <time>2014-11-08T15:42:38Z</time>
      </trkpt>
      <trkpt lat="44.47776" lon="0.94152">
        <ele>61.18</ele>
        <time>2014-11-08T15:42:45Z</time>
      </trkpt>
      <trkpt lat="44.4777" lon="0.94144">
        <ele>61.66</ele>
        <time>2014-11-08T15:42:47Z</time>
      </trkpt>
      <trkpt lat="44.47736" lon="0.94113">
        <ele>61.66</ele>
        <time>2014-11-08T15:42:56Z</time>
      </trkpt>
      <trkpt lat="44.47721" lon="0.94099">
        <ele>61.18</ele>
        <time>2014-11-08T15:43:00Z</time>
      </trkpt>
      <trkpt lat="44.47707" lon="0.94087">
        <ele>60.7</ele>
        <time>2014-11-08T15:43:03Z</time>
      </trkpt>
      <trkpt lat="44.47684" lon="0.94063">
        <ele>60.22</ele>
        <time>2014-11-08T15:43:09Z</time>
      </trkpt>
      <trkpt lat="44.47634" lon="0.94034">
        <ele>59.26</ele>
        <time>2014-11-08T15:43:21Z</time>
      </trkpt>
      <trkpt lat="44.47593" lon="0.94001">
        <ele>57.34</ele>
        <time>2014-11-08T15:43:32Z</time>
      </trkpt>
      <trkpt lat="44.47584" lon="0.93996">
        <ele>57.34</ele>
        <time>2014-11-08T15:43:34Z</time>
      </trkpt>
      <trkpt lat="44.4758" lon="0.93992">
        <ele>57.34</ele>
        <time>2014-11-08T15:43:35Z</time>
      </trkpt>
      <trkpt lat="44.47574" lon="0.93986">
        <ele>57.34</ele>
        <time>2014-11-08T15:43:37Z</time>
      </trkpt>
      <trkpt lat="44.4757" lon="0.93982">
        <ele>57.34</ele>
        <time>2014-11-08T15:43:38Z</time>
      </trkpt>
      <trkpt lat="44.47546" lon="0.93961">
        <ele>58.3</ele>
        <time>2014-11-08T15:43:45Z</time>
      </trkpt>
      <trkpt lat="44.47515" lon="0.93951">
        <ele>59.74</ele>
        <time>2014-11-08T15:43:53Z</time>
      </trkpt>
      <trkpt lat="44.47513" lon="0.93948">
        <ele>60.22</ele>
        <time>2014-11-08T15:43:54Z</time>
      </trkpt>
      <trkpt lat="44.47511" lon="0.93944">
        <ele>60.7</ele>
        <time>2014-11-08T15:43:55Z</time>
      </trkpt>
      <trkpt lat="44.47491" lon="0.93894">
        <ele>63.1</ele>
        <time>2014-11-08T15:44:07Z</time>
      </trkpt>
      <trkpt lat="44.47488" lon="0.93894">
        <ele>63.1</ele>
        <time>2014-11-08T15:44:08Z</time>
      </trkpt>
      <trkpt lat="44.47486" lon="0.93895">
        <ele>63.58</ele>
        <time>2014-11-08T15:44:09Z</time>
      </trkpt>
      <trkpt lat="44.47439" lon="0.93928">
        <ele>65.03</ele>
        <time>2014-11-08T15:44:22Z</time>
      </trkpt>
      <trkpt lat="44.47406" lon="0.93951">
        <ele>67.43</ele>
        <time>2014-11-08T15:44:31Z</time>
      </trkpt>
      <trkpt lat="44.47403" lon="0.93952">
        <ele>67.91</ele>
        <time>2014-11-08T15:44:32Z</time>
      </trkpt>
      <trkpt lat="44.47401" lon="0.93952">
        <ele>67.91</ele>
        <time>2014-11-08T15:44:33Z</time>
      </trkpt>
      <trkpt lat="44.474" lon="0.93953">
        <ele>68.39</ele>
        <time>2014-11-08T15:44:34Z</time>
      </trkpt>
      <trkpt lat="44.47398" lon="0.93954">
        <ele>68.39</ele>
        <time>2014-11-08T15:44:35Z</time>
      </trkpt>
      <trkpt lat="44.47396" lon="0.93955">
        <ele>68.39</ele>
        <time>2014-11-08T15:44:36Z</time>
      </trkpt>
      <trkpt lat="44.47394" lon="0.93955">
        <ele>68.39</ele>
        <time>2014-11-08T15:44:37Z</time>
      </trkpt>
      <trkpt lat="44.47393" lon="0.93953">
        <ele>68.39</ele>
        <time>2014-11-08T15:44:38Z</time>
      </trkpt>
      <trkpt lat="44.47392" lon="0.93951">
        <ele>68.39</ele>
        <time>2014-11-08T15:44:39Z</time>
      </trkpt>
      <trkpt lat="44.47391" lon="0.93948">
        <ele>68.39</ele>
        <time>2014-11-08T15:44:40Z</time>
      </trkpt>
      <trkpt lat="44.4739" lon="0.93944">
        <ele>68.87</ele>
        <time>2014-11-08T15:44:41Z</time>
      </trkpt>
      <trkpt lat="44.4739" lon="0.9394">
        <ele>68.87</ele>
        <time>2014-11-08T15:44:42Z</time>
      </trkpt>
      <trkpt lat="44.47388" lon="0.93936">
        <ele>68.87</ele>
        <time>2014-11-08T15:44:43Z</time>
      </trkpt>
      <trkpt lat="44.47387" lon="0.93932">
        <ele>69.35</ele>
        <time>2014-11-08T15:44:44Z</time>
      </trkpt>
      <trkpt lat="44.47386" lon="0.93928">
        <ele>69.35</ele>
        <time>2014-11-08T15:44:45Z</time>
      </trkpt>
      <trkpt lat="44.47372" lon="0.9385">
        <ele>66.47</ele>
        <time>2014-11-08T15:44:59Z</time>
      </trkpt>
      <trkpt lat="44.47371" lon="0.93844">
        <ele>65.99</ele>
        <time>2014-11-08T15:45:00Z</time>
      </trkpt>
      <trkpt lat="44.47368" lon="0.93838">
        <ele>65.99</ele>
        <time>2014-11-08T15:45:01Z</time>
      </trkpt>
      <trkpt lat="44.47366" lon="0.93833">
        <ele>66.47</ele>
        <time>2014-11-08T15:45:02Z</time>
      </trkpt>
      <trkpt lat="44.47363" lon="0.93829">
        <ele>66.47</ele>
        <time>2014-11-08T15:45:03Z</time>
      </trkpt>
      <trkpt lat="44.47354" lon="0.93818">
        <ele>67.91</ele>
        <time>2014-11-08T15:45:07Z</time>
      </trkpt>
      <trkpt lat="44.47352" lon="0.93818">
        <ele>68.39</ele>
        <time>2014-11-08T15:45:08Z</time>
      </trkpt>
      <trkpt lat="44.47349" lon="0.93817">
        <ele>68.39</ele>
        <time>2014-11-08T15:45:09Z</time>
      </trkpt>
      <trkpt lat="44.47347" lon="0.93814">
        <ele>68.87</ele>
        <time>2014-11-08T15:45:10Z</time>
      </trkpt>
      <trkpt lat="44.47347" lon="0.93812">
        <ele>68.87</ele>
        <time>2014-11-08T15:45:11Z</time>
      </trkpt>
      <trkpt lat="44.47347" lon="0.9381">
        <ele>68.87</ele>
        <time>2014-11-08T15:45:12Z</time>
      </trkpt>
      <trkpt lat="44.47347" lon="0.93808">
        <ele>69.35</ele>
        <time>2014-11-08T15:45:13Z</time>
      </trkpt>
      <trkpt lat="44.47346" lon="0.93807">
        <ele>69.35</ele>
        <time>2014-11-08T15:45:14Z</time>
      </trkpt>
      <trkpt lat="44.47346" lon="0.93805">
        <ele>68.87</ele>
        <time>2014-11-08T15:45:15Z</time>
      </trkpt>
      <trkpt lat="44.47345" lon="0.93802">
        <ele>68.87</ele>
        <time>2014-11-08T15:45:16Z</time>
      </trkpt>
      <trkpt lat="44.47345" lon="0.938">
        <ele>68.87</ele>
        <time>2014-11-08T15:45:17Z</time>
      </trkpt>
      <trkpt lat="44.47344" lon="0.93797">
        <ele>68.87</ele>
        <time>2014-11-08T15:45:18Z</time>
      </trkpt>
      <trkpt lat="44.47343" lon="0.93794">
        <ele>68.87</ele>
        <time>2014-11-08T15:45:19Z</time>
      </trkpt>
      <trkpt lat="44.47343" lon="0.9379">
        <ele>69.35</ele>
        <time>2014-11-08T15:45:20Z</time>
      </trkpt>
      <trkpt lat="44.47341" lon="0.9378">
        <ele>68.87</ele>
        <time>2014-11-08T15:45:22Z</time>
      </trkpt>
      <trkpt lat="44.47334" lon="0.93762">
        <ele>68.87</ele>
        <time>2014-11-08T15:45:25Z</time>
      </trkpt>
      <trkpt lat="44.47331" lon="0.93756">
        <ele>68.87</ele>
        <time>2014-11-08T15:45:26Z</time>
      </trkpt>
      <trkpt lat="44.47324" lon="0.93745">
        <ele>68.87</ele>
        <time>2014-11-08T15:45:28Z</time>
      </trkpt>
      <trkpt lat="44.4732" lon="0.9374">
        <ele>68.87</ele>
        <time>2014-11-08T15:45:29Z</time>
      </trkpt>
      <trkpt lat="44.47316" lon="0.93735">
        <ele>69.35</ele>
        <time>2014-11-08T15:45:30Z</time>
      </trkpt>
      <trkpt lat="44.47313" lon="0.9373">
        <ele>69.35</ele>
        <time>2014-11-08T15:45:31Z</time>
      </trkpt>
      <trkpt lat="44.4731" lon="0.93724">
        <ele>69.35</ele>
        <time>2014-11-08T15:45:32Z</time>
      </trkpt>
      <trkpt lat="44.47308" lon="0.93718">
        <ele>69.35</ele>
        <time>2014-11-08T15:45:33Z</time>
      </trkpt>
      <trkpt lat="44.47303" lon="0.93707">
        <ele>69.35</ele>
        <time>2014-11-08T15:45:35Z</time>
      </trkpt>
      <trkpt lat="44.47302" lon="0.93702">
        <ele>68.87</ele>
        <time>2014-11-08T15:45:36Z</time>
      </trkpt>
      <trkpt lat="44.473" lon="0.93697">
        <ele>68.87</ele>
        <time>2014-11-08T15:45:37Z</time>
      </trkpt>
      <trkpt lat="44.47299" lon="0.93692">
        <ele>68.87</ele>
        <time>2014-11-08T15:45:38Z</time>
      </trkpt>
      <trkpt lat="44.47297" lon="0.93686">
        <ele>68.87</ele>
        <time>2014-11-08T15:45:39Z</time>
      </trkpt>
      <trkpt lat="44.47294" lon="0.93681">
        <ele>68.87</ele>
        <time>2014-11-08T15:45:40Z</time>
      </trkpt>
      <trkpt lat="44.4729" lon="0.93676">
        <ele>68.87</ele>
        <time>2014-11-08T15:45:41Z</time>
      </trkpt>
      <trkpt lat="44.47287" lon="0.9367">
        <ele>69.35</ele>
        <time>2014-11-08T15:45:42Z</time>
      </trkpt>
      <trkpt lat="44.47285" lon="0.93664">
        <ele>69.35</ele>
        <time>2014-11-08T15:45:43Z</time>
      </trkpt>
      <trkpt lat="44.47283" lon="0.93657">
        <ele>69.35</ele>
        <time>2014-11-08T15:45:44Z</time>
      </trkpt>
      <trkpt lat="44.4728" lon="0.93651">
        <ele>69.35</ele>
        <time>2014-11-08T15:45:45Z</time>
      </trkpt>
      <trkpt lat="44.47277" lon="0.93646">
        <ele>69.35</ele>
        <time>2014-11-08T15:45:46Z</time>
      </trkpt>
      <trkpt lat="44.47269" lon="0.93638">
        <ele>69.35</ele>
        <time>2014-11-08T15:45:48Z</time>
      </trkpt>
      <trkpt lat="44.4726" lon="0.9363">
        <ele>69.83</ele>
        <time>2014-11-08T15:45:50Z</time>
      </trkpt>
      <trkpt lat="44.4725" lon="0.93617">
        <ele>69.35</ele>
        <time>2014-11-08T15:45:53Z</time>
      </trkpt>
      <trkpt lat="44.47229" lon="0.93564">
        <ele>68.87</ele>
        <time>2014-11-08T15:46:06Z</time>
      </trkpt>
      <trkpt lat="44.47226" lon="0.93525">
        <ele>67.91</ele>
        <time>2014-11-08T15:46:16Z</time>
      </trkpt>
      <trkpt lat="44.47217" lon="0.93469">
        <ele>67.43</ele>
        <time>2014-11-08T15:46:30Z</time>
      </trkpt>
      <trkpt lat="44.47209" lon="0.93429">
        <ele>66.95</ele>
        <time>2014-11-08T15:46:43Z</time>
      </trkpt>
      <trkpt lat="44.47207" lon="0.93421">
        <ele>66.95</ele>
        <time>2014-11-08T15:46:53Z</time>
      </trkpt>
      <trkpt lat="44.47206" lon="0.93421">
        <ele>65.51</ele>
        <time>2014-11-08T15:47:23Z</time>
      </trkpt>
      <trkpt lat="44.47206" lon="0.93421">
        <ele>65.03</ele>
        <time>2014-11-08T15:48:09Z</time>
      </trkpt>
      <trkpt lat="44.47205" lon="0.93419">
        <ele>63.58</ele>
        <time>2014-11-08T15:48:52Z</time>
      </trkpt>
    </trkseg>
  </trk>
</gpx>